Radiosonde details



Informationen :

Serial : V3010051
Type : Vaisala RS41-SGP
Date of production : 24.07.2023
Frequency : 403.000MHz
Launchsite : Galeao
Nearest town : Saquarema, BR (9.8km)

Altitude (Max) : 26145m at 2026-09-01 00:48:59
Speed (Max) : 146km/h at altitude 12985m

Average speed : 52km/h
Average ascent rate : 6m/s
Average descent rate : -12m/s
Ascent rate (Max) : 27.8m/s
Descent rate (Max): -22.3m/s

First frame :
PU1XMG-16 at 2026-08-31 23:33:48 at altitude 247m (OG: 205m)
Last frame :
PU1XMG-16 at 2026-09-01 01:22:02 at altitude 2350m (OG: 2308m)

Flighttime : 1h48m14s
Ascent time : 1h15m11s
Descent time : 33m3s
Uptime : -
Killtimer : 8h03m

Distance (Straight line distance): 80km

Distance (Route):


Frames : 865


Measurement :

Temperature : 15.5°C
Humidity : 71.9%
Pressure : 770.3hPa


Vertical profile (SkewT) :


Elevation profile :



Receiving stations :


Receiver Frames First received Last received
PU1XMG-16 865 2026-08-31 23:33:48 2026-09-01 01:22:02

Share per receiver :



All frames :


Receiver Date Latitude Longitude Direction Speed Altitude Climb Temperature Humidity Pressure Voltage Killtimer Uptime BKT XDATA
PU1XMG-162026-09-01 01:22:02-22.81129-42.47477137°42km/h2350m-8.4m/s15.5°C71.9%770.3hPa0V00:00:0000:00:0000:00:00
PU1XMG-162026-09-01 01:21:53-22.81068-42.47540136°40km/h2416m-8.2m/s15.1°C74.0%764.4hPa0V00:00:0000:00:0000:00:00
PU1XMG-162026-09-01 01:21:42-22.80979-42.47635136°42km/h2517m-8.7m/s14.7°C65.5%755.4hPa0V00:00:0000:00:0000:00:00
PU1XMG-162026-09-01 01:20:17-22.80520-42.48213119°31km/h3221m-8.3m/s9.7°C74.0%694.9hPa0V00:00:0000:00:0000:00:00
PU1XMG-162026-09-01 01:20:11-22.80498-42.48257117°31km/h3270m-8.6m/s9.3°C77.6%690.7hPa0V00:00:0000:00:0000:00:00
PU1XMG-162026-09-01 01:20:02-22.80462-42.48336118°33km/h3353m-8.7m/s8.6°C80.6%683.9hPa0V00:00:0000:00:0000:00:00
PU1XMG-162026-09-01 01:19:55-22.80440-42.48382120°31km/h3404m-8.6m/s8.1°C82.2%679.7hPa0V00:00:0000:00:0000:00:00
PU1XMG-162026-09-01 01:19:49-22.80415-42.48427121°31km/h3454m-8.4m/s7.8°C82.4%675.7hPa0V00:00:0000:00:0000:00:00
PU1XMG-162026-09-01 01:19:44-22.80391-42.48469122°29km/h3504m-8.4m/s7.4°C82.4%671.7hPa0V00:00:0000:00:0000:00:00
PU1XMG-162026-09-01 01:17:58-22.79904-42.49342114°40km/h4403m-8.5m/s0.9°C87.3%601.7hPa0V00:00:0000:00:0000:00:00
PU1XMG-162026-09-01 01:16:27-22.79492-42.50387109°55km/h5180m-8.3m/s-3.8°C85.9%546.0hPa0V08:03:0000:00:0000:00:00
PU1XMG-162026-09-01 01:16:20-22.79464-42.50489107°57km/h5240m-8.8m/s-3.9°C78.5%541.9hPa0V08:03:0000:00:0000:00:00
PU1XMG-162026-09-01 01:16:15-22.79443-42.50566109°58km/h5282m-8.8m/s-3.9°C69.7%539.0hPa0V08:03:0000:00:0000:00:00
PU1XMG-162026-09-01 01:16:10-22.79420-42.50643110°60km/h5326m-8.4m/s-4.1°C76.4%536.0hPa0V08:03:0000:00:0000:00:00
PU1XMG-162026-09-01 01:16:04-22.79392-42.50735108°58km/h5377m-8.7m/s-4.4°C77.4%532.5hPa0V08:03:0000:00:0000:00:00
PU1XMG-162026-09-01 01:15:59-22.79369-42.50813107°60km/h5420m-8.1m/s-3.7°C66.0%529.8hPa0V08:03:0000:00:0000:00:00
PU1XMG-162026-09-01 01:15:53-22.79344-42.50910106°60km/h5471m-8.8m/s-3.3°C44.9%526.5hPa0V08:03:0000:00:0000:00:00
PU1XMG-162026-09-01 01:15:47-22.79319-42.51008105°62km/h5525m-8.9m/s-3.8°C48.5%522.7hPa0V08:03:0000:00:0000:00:00
PU1XMG-162026-09-01 01:15:42-22.79300-42.51093102°64km/h5569m-8.9m/s-4.1°C44.5%519.9hPa0V08:04:0000:00:0000:00:00
PU1XMG-162026-09-01 01:15:36-22.79282-42.51195101°66km/h5625m-9.4m/s-4.5°C38.8%516.3hPa0V08:04:0000:00:0000:00:00
PU1XMG-162026-09-01 01:15:30-22.79265-42.51301101°66km/h5680m-9.5m/s-4.9°C24.8%512.7hPa0V08:04:0000:00:0000:00:00
PU1XMG-162026-09-01 01:15:23-22.79247-42.5142997°68km/h5746m-9.0m/s-5.6°C22.1%508.4hPa0V08:04:0000:00:0000:00:00
PU1XMG-162026-09-01 01:15:17-22.79236-42.5153898°66km/h5800m-9.5m/s-6.1°C23.3%504.8hPa0V08:04:0000:00:0000:00:00
PU1XMG-162026-09-01 01:15:13-22.79229-42.5162894°68km/h5847m-9.4m/s-6.4°C16.1%501.8hPa0V08:04:0000:00:0000:00:00
PU1XMG-162026-09-01 01:15:05-22.79227-42.5175892°69km/h5912m-9.1m/s-7.0°C13.9%497.7hPa0V08:04:0000:00:0000:00:00
PU1XMG-162026-09-01 01:15:00-22.79224-42.5185492°69km/h5960m-9.4m/s-7.4°C14.6%494.7hPa0V08:04:0000:00:0000:00:00
PU1XMG-162026-09-01 01:14:55-22.79222-42.5195093°69km/h6007m-9.4m/s-7.7°C16.0%491.6hPa0V08:04:0000:00:0000:00:00
PU1XMG-162026-09-01 01:14:50-22.79216-42.5206495°71km/h6063m-9.6m/s-7.5°C9.6%488.2hPa0V00:00:0000:00:0000:00:00
PU1XMG-162026-09-01 01:14:43-22.79209-42.5217993°69km/h6120m-9.4m/s-7.6°C5.9%484.6hPa0V00:00:0000:00:0000:00:00
PU1XMG-162026-09-01 01:14:37-22.79201-42.5229495°69km/h6178m-9.4m/s-7.4°C5.1%481.1hPa0V00:00:0000:00:0000:00:00
PU1XMG-162026-09-01 01:14:32-22.79193-42.5239095°71km/h6225m-10.1m/s-7.7°C4.9%478.2hPa0V00:00:0000:00:0000:00:00
PU1XMG-162026-09-01 01:14:26-22.79184-42.5250697°73km/h6283m-9.8m/s-8.2°C5.1%474.5hPa0V00:00:0000:00:0000:00:00
PU1XMG-162026-09-01 01:14:20-22.79173-42.5262596°73km/h6342m-10.0m/s-8.7°C6.3%471.0hPa0V00:00:0000:00:0000:00:00
PU1XMG-162026-09-01 01:14:15-22.79162-42.5272298°71km/h6391m-9.6m/s-9.1°C6.6%468.1hPa0V00:00:0000:00:0000:00:00
PU1XMG-162026-09-01 01:14:09-22.79149-42.52839100°71km/h6448m-9.6m/s-9.6°C7.4%464.6hPa0V00:00:0000:00:0000:00:00
PU1XMG-162026-09-01 01:14:03-22.79133-42.52954100°71km/h6506m-9.9m/s-10.1°C7.8%461.1hPa0V00:00:0000:00:0000:00:00
PU1XMG-162026-09-01 01:13:58-22.79115-42.53068102°71km/h6564m-9.7m/s-10.6°C7.7%457.7hPa0V08:06:0000:00:0000:00:00
PU1XMG-162026-09-01 01:13:46-22.79081-42.53274101°69km/h6674m-9.7m/s-11.5°C8.8%451.2hPa0V08:06:0000:00:0000:00:00
PU1XMG-162026-09-01 01:13:40-22.79062-42.53388101°73km/h6734m-9.6m/s-12.1°C9.7%447.7hPa0V08:06:0000:00:0000:00:00
PU1XMG-162026-09-01 01:13:35-22.79046-42.53504100°71km/h6795m-9.4m/s-12.6°C10.7%444.2hPa0V08:06:0000:00:0000:00:00
PU1XMG-162026-09-01 01:13:28-22.79031-42.5362099°71km/h6854m-9.6m/s-13.1°C12.1%440.8hPa0V08:06:0000:00:0000:00:00
PU1XMG-162026-09-01 01:13:22-22.79015-42.5375799°69km/h6921m-9.5m/s-13.7°C23.5%436.9hPa0V08:06:0000:00:0000:00:00
PU1XMG-162026-09-01 01:13:10-22.78984-42.53993100°69km/h7036m-9.2m/s-14.8°C49.5%430.4hPa0V08:07:0000:00:0000:00:00
PU1XMG-162026-09-01 01:13:05-22.78968-42.54088102°69km/h7084m-9.1m/s-15.4°C57.5%427.7hPa0V08:07:0000:00:0000:00:00
PU1XMG-162026-09-01 01:12:55-22.78939-42.54258101°68km/h7167m-9.5m/s-16.1°C56.7%423.0hPa0V08:07:0000:00:0000:00:00
PU1XMG-162026-09-01 01:12:50-22.78918-42.54369104°69km/h7224m-9.7m/s-16.6°C58.8%419.8hPa0V08:07:0000:00:0000:00:00
PU1XMG-162026-09-01 01:12:45-22.78900-42.54463102°66km/h7273m-9.5m/s-17.1°C54.9%417.1hPa0V08:07:0000:00:0000:00:00
PU1XMG-162026-09-01 01:12:38-22.78884-42.5457099°64km/h7332m-9.7m/s-17.8°C57.0%414.0hPa0V08:07:0000:00:0000:00:00
PU1XMG-162026-09-01 01:12:30-22.78871-42.5471191°62km/h7417m-11.2m/s-18.5°C73.9%409.2hPa0V08:07:0000:00:0000:00:00
PU1XMG-162026-09-01 01:12:25-22.78872-42.5481188°58km/h7481m-10.5m/s-18.8°C78.4%405.7hPa0V08:07:0000:00:0000:00:00
PU1XMG-162026-09-01 01:12:18-22.78881-42.5490480°58km/h7547m-11.1m/s-18.2°C88.0%402.2hPa0V00:00:0000:00:0000:00:00
PU1XMG-162026-09-01 01:12:11-22.78903-42.5501377°60km/h7625m-11.2m/s-18.6°C87.1%398.0hPa0V00:00:0000:00:0000:00:00
PU1XMG-162026-09-01 01:12:05-22.78932-42.5510772°58km/h7691m-11.2m/s-18.9°C86.9%394.5hPa0V00:00:0000:00:0000:00:00
PU1XMG-162026-09-01 01:11:57-22.78977-42.5522868°58km/h7779m-10.4m/s-19.4°C88.3%389.9hPa0V00:00:0000:00:0000:00:00
PU1XMG-162026-09-01 01:11:51-22.79023-42.5533062°60km/h7855m-10.5m/s-19.8°C88.2%386.0hPa0V00:00:0000:00:0000:00:00
PU1XMG-162026-09-01 01:11:09-22.79243-42.5586974°44km/h8314m-10.8m/s-23.2°C86.6%362.7hPa0V08:08:0000:00:0000:00:00
PU1XMG-162026-09-01 01:10:44-22.79302-42.5612482°44km/h8581m-11.4m/s-24.8°C80.1%349.7hPa0V08:08:0000:00:0000:00:00
PU1XMG-162026-09-01 01:10:39-22.79310-42.5618382°46km/h8636m-11.0m/s-25.2°C79.1%347.2hPa0V08:08:0000:00:0000:00:00
PU1XMG-162026-09-01 01:10:34-22.79315-42.5624688°47km/h8690m-10.9m/s-25.4°C77.7%344.5hPa0V00:00:0000:00:0000:00:00
PU1XMG-162026-09-01 01:10:27-22.79320-42.5635888°57km/h8778m-11.7m/s-26.0°C79.0%340.4hPa0V00:00:0000:00:0000:00:00
PU1XMG-162026-09-01 01:10:20-22.79324-42.5647392°64km/h8856m-10.5m/s-26.5°C80.1%336.8hPa0V00:00:0000:00:0000:00:00
PU1XMG-162026-09-01 01:10:14-22.79323-42.5656392°68km/h8909m-11.7m/s-26.7°C75.1%334.4hPa0V00:00:0000:00:0000:00:00
PU1XMG-162026-09-01 01:10:09-22.79323-42.5665987°69km/h8963m-10.3m/s-27.2°C77.9%331.8hPa0V00:00:0000:00:0000:00:00
PU1XMG-162026-09-01 01:10:04-22.79331-42.5677987°78km/h9025m-12.2m/s-27.5°C73.3%329.0hPa0V00:00:0000:00:0000:00:00
PU1XMG-162026-09-01 01:09:57-22.79338-42.5690287°77km/h9095m-12.0m/s-28.1°C74.2%325.7hPa0V00:00:0000:00:0000:00:00
PU1XMG-162026-09-01 01:09:52-22.79347-42.5700687°75km/h9150m-11.1m/s-28.6°C72.9%323.2hPa0V00:00:0000:00:0000:00:00
PU1XMG-162026-09-01 01:09:48-22.79353-42.5711287°78km/h9208m-10.8m/s-29.1°C73.5%320.7hPa0V00:00:0000:00:0000:00:00
PU1XMG-162026-09-01 01:09:41-22.79367-42.5726785°82km/h9275m-9.7m/s-29.7°C76.6%317.7hPa0V00:00:0000:00:0000:00:00
PU1XMG-162026-09-01 01:09:35-22.79380-42.5737885°80km/h9323m-9.9m/s-30.1°C76.2%315.5hPa0V00:00:0000:00:0000:00:00
PU1XMG-162026-09-01 01:09:22-22.79409-42.5768885°82km/h9456m-10.1m/s-30.8°C72.1%309.7hPa0V00:00:0000:00:0000:00:00
PU1XMG-162026-09-01 01:08:55-22.79445-42.5826189°73km/h9802m-16.7m/s-33.1°C67.5%295.4hPa0V00:00:0000:00:0000:00:00
PU1XMG-162026-09-01 01:08:40-22.79439-42.5852398°64km/h10004m-12.6m/s-34.4°C63.9%286.8hPa0V00:00:0000:00:0000:00:00
PU1XMG-162026-09-01 01:08:31-22.79416-42.58702102°68km/h10139m-14.8m/s-35.2°C60.7%281.3hPa0V00:00:0000:00:0000:00:00
PU1XMG-162026-09-01 01:06:11-22.79399-42.6179870°115km/h11891m-12.3m/s-47.6°C29.5%217.3hPa0V00:00:0000:00:0000:00:00
PU1XMG-162026-09-01 01:06:05-22.79461-42.6197671°119km/h11963m-13.3m/s-48.1°C31.2%215.0hPa0V00:00:0000:00:0000:00:00
PU1XMG-162026-09-01 01:05:50-22.79624-42.6246470°130km/h12144m-12.6m/s-49.0°C32.3%209.2hPa0V00:00:0000:00:0000:00:00
PU1XMG-162026-09-01 01:04:35-22.80721-42.6492460°113km/h13019m-10.6m/s-52.8°C4.7%182.9hPa0V08:15:0000:00:0000:00:00
PU1XMG-162026-09-01 01:04:04-22.81099-42.6571868°97km/h13355m-13.7m/s-55.2°C5.8%173.7hPa0V08:15:0000:00:0000:00:00
PU1XMG-162026-09-01 01:03:58-22.81159-42.6586766°100km/h13436m-12.5m/s-55.3°C4.9%171.5hPa0V08:15:0000:00:0000:00:00
PU1XMG-162026-09-01 01:03:52-22.81225-42.6601865°100km/h13496m-8.8m/s-55.8°C4.7%169.8hPa0V08:15:0000:00:0000:00:00
PU1XMG-162026-09-01 01:03:46-22.81290-42.6616766°100km/h13550m-9.7m/s-56.1°C4.7%168.4hPa0V08:16:0000:00:0000:00:00
PU1XMG-162026-09-01 01:03:40-22.81353-42.6631766°100km/h13606m-9.1m/s-56.4°C4.9%166.8hPa0V08:16:0000:00:0000:00:00
PU1XMG-162026-09-01 01:03:34-22.81414-42.6646768°99km/h13661m-9.0m/s-56.9°C5.1%165.4hPa0V08:16:0000:00:0000:00:00
PU1XMG-162026-09-01 01:03:29-22.81462-42.6659069°97km/h13705m-9.1m/s-57.4°C5.3%164.2hPa0V08:16:0000:00:0000:00:00
PU1XMG-162026-09-01 01:03:23-22.81517-42.6673669°97km/h13759m-9.2m/s-57.8°C5.5%162.9hPa0V08:16:0000:00:0000:00:00
PU1XMG-162026-09-01 01:03:18-22.81563-42.6685869°95km/h13806m-9.3m/s-58.2°C5.9%161.7hPa0V08:16:0000:00:0000:00:00
PU1XMG-162026-09-01 01:03:12-22.81616-42.6700370°95km/h13862m-9.5m/s-58.8°C6.1%160.3hPa0V08:16:0000:00:0000:00:00
PU1XMG-162026-09-01 01:03:04-22.81685-42.6719671°93km/h13941m-10.1m/s-59.5°C6.5%158.3hPa0V08:16:0000:00:0000:00:00
PU1XMG-162026-09-01 01:02:59-22.81725-42.6731671°93km/h13991m-10.1m/s-59.9°C6.7%157.0hPa0V08:16:0000:00:0000:00:00
PU1XMG-162026-09-01 01:02:53-22.81773-42.6745972°93km/h14052m-10.3m/s-60.4°C7.0%155.5hPa0V00:00:0000:00:0000:00:00
PU1XMG-162026-09-01 01:02:42-22.81861-42.6772572°93km/h14167m-10.4m/s-61.4°C7.6%152.6hPa0V00:00:0000:00:0000:00:00
PU1XMG-162026-09-01 01:02:37-22.81899-42.6784572°93km/h14218m-10.4m/s-61.9°C7.8%151.4hPa0V00:00:0000:00:0000:00:00
PU1XMG-162026-09-01 01:02:31-22.81945-42.6798872°89km/h14280m-10.2m/s-62.4°C8.3%149.9hPa0V00:00:0000:00:0000:00:00
PU1XMG-162026-09-01 01:02:25-22.81989-42.6812371°84km/h14341m-10.1m/s-62.9°C8.9%148.4hPa0V00:00:0000:00:0000:00:00
PU1XMG-162026-09-01 01:00:39-22.82504-42.6984492°40km/h15480m-11.6m/s-70.8°C15.8%123.0hPa0V00:00:0000:00:0000:00:00
PU1XMG-162026-09-01 01:00:32-22.82496-42.69905105°35km/h15546m-10.9m/s-71.3°C16.0%121.7hPa0V00:00:0000:00:0000:00:00
PU1XMG-162026-09-01 01:00:21-22.82471-42.69993111°29km/h15676m-11.8m/s-72.0°C15.4%119.1hPa0V08:19:0000:00:0000:00:00
PU1XMG-162026-09-01 01:00:18-22.82458-42.70029114°27km/h15734m-11.6m/s-72.4°C15.4%117.9hPa0V08:19:0000:00:0000:00:00
PU1XMG-162026-09-01 01:00:08-22.82433-42.70084124°29km/h15826m-11.2m/s-73.2°C15.2%116.1hPa0V08:19:0000:00:0000:00:00
PU1XMG-162026-09-01 01:00:01-22.82401-42.70124135°27km/h15904m-10.6m/s-73.8°C15.0%114.5hPa0V08:19:0000:00:0000:00:00
PU1XMG-162026-09-01 00:59:54-22.82355-42.70164148°31km/h15994m-11.0m/s-74.5°C14.8%112.8hPa0V08:19:0000:00:0000:00:00
PU1XMG-162026-09-01 00:59:48-22.82319-42.70186155°35km/h16050m-11.1m/s-74.9°C14.3%111.7hPa0V08:19:0000:00:0000:00:00
PU1XMG-162026-09-01 00:59:42-22.82271-42.70208161°33km/h16118m-11.2m/s-75.4°C13.9%110.4hPa0V08:19:0000:00:0000:00:00
PU1XMG-162026-09-01 00:59:37-22.82232-42.70222164°33km/h16175m-11.3m/s-75.8°C13.7%109.3hPa0V08:19:0000:00:0000:00:00
PU1XMG-162026-09-01 00:59:31-22.82182-42.70240162°37km/h16243m-11.3m/s-76.2°C13.2%108.1hPa0V08:20:0000:00:0000:00:00
PU1XMG-162026-09-01 00:59:25-22.82127-42.70258165°40km/h16311m-11.4m/s-76.8°C12.7%106.7hPa0V08:20:0000:00:0000:00:00
PU1XMG-162026-09-01 00:59:20-22.82066-42.70277164°42km/h16380m-11.4m/s-77.4°C12.3%105.5hPa0V08:20:0000:00:0000:00:00
PU1XMG-162026-09-01 00:59:13-22.82005-42.70301158°44km/h16449m-11.5m/s-78.0°C12.4%104.2hPa0V08:20:0000:00:0000:00:00
PU1XMG-162026-09-01 00:59:08-22.81953-42.70330149°46km/h16508m-11.8m/s-78.4°C12.0%103.2hPa0V08:20:0000:00:0000:00:00
PU1XMG-162026-09-01 00:59:02-22.81897-42.70376142°47km/h16579m-11.8m/s-78.6°C11.3%101.9hPa0V08:20:0000:00:0000:00:00
PU1XMG-162026-09-01 00:58:57-22.81850-42.70416143°47km/h16638m-11.9m/s-78.4°C10.5%100.9hPa0V08:20:0000:00:0000:00:00
PU1XMG-162026-09-01 00:58:51-22.81792-42.70464144°46km/h16709m-11.9m/s-78.6°C9.6%99.6hPa0V08:20:0000:00:0000:00:00
PU1XMG-162026-09-01 00:58:45-22.81738-42.70506148°44km/h16782m-12.1m/s-79.2°C9.6%98.3hPa0V08:20:0000:00:0000:00:00
PU1XMG-162026-09-01 00:58:40-22.81682-42.70544144°44km/h16855m-12.1m/s-79.6°C9.8%97.1hPa0V08:21:0000:00:0000:00:00
PU1XMG-162026-09-01 00:58:34-22.81642-42.70584133°40km/h16915m-12.4m/s-80.0°C10.1%96.1hPa0V08:21:0000:00:0000:00:00
PU1XMG-162026-09-01 00:58:27-22.81596-42.70632138°33km/h17003m-12.5m/s-79.3°C10.5%94.6hPa0V08:21:0000:00:0000:00:00
PU1XMG-162026-09-01 00:58:22-22.81572-42.70665119°31km/h17066m-12.8m/s-77.5°C8.9%93.5hPa0V08:21:0000:00:0000:00:00
PU1XMG-162026-09-01 00:58:16-22.81556-42.7072798°51km/h17142m-12.8m/s-76.0°C7.6%92.3hPa0V08:21:0000:00:0000:00:00
PU1XMG-162026-09-01 00:58:03-22.81567-42.7093179°51km/h17314m-13.3m/s-68.4°C4.2%89.7hPa0V08:21:0000:00:0000:00:00
PU1XMG-162026-09-01 00:57:57-22.81583-42.7100378°40km/h17395m-13.4m/s-64.6°C2.9%88.5hPa0V08:21:0000:00:0000:00:00
PU1XMG-162026-09-01 00:57:51-22.81590-42.7106385°35km/h17476m-13.7m/s-63.5°C2.7%87.3hPa0V00:00:0000:00:0000:00:00
PU1XMG-162026-09-01 00:57:40-22.81612-42.7117589°35km/h17642m-14.3m/s-63.5°C2.8%84.9hPa0V00:00:0000:00:0000:00:00
PU1XMG-162026-09-01 00:57:34-22.81606-42.71219106°31km/h17713m-14.2m/s-63.4°C2.8%84.0hPa0V00:00:0000:00:0000:00:00
PU1XMG-162026-09-01 00:57:26-22.81584-42.71284109°33km/h17831m-15.2m/s-62.4°C2.5%82.4hPa0V00:00:0000:00:0000:00:00
PU1XMG-162026-09-01 00:57:18-22.81566-42.71357102°37km/h17955m-16.0m/s-61.4°C2.2%80.8hPa0V00:00:0000:00:0000:00:00
PU1XMG-162026-09-01 00:57:13-22.81559-42.7140895°38km/h18036m-14.9m/s-61.9°C2.2%79.8hPa0V00:00:0000:00:0000:00:00
PU1XMG-162026-09-01 00:57:03-22.81551-42.7150699°33km/h18174m-13.6m/s-62.8°C2.3%77.9hPa0V00:00:0000:00:0000:00:00
PU1XMG-162026-09-01 00:56:58-22.81548-42.7155493°38km/h18243m-13.6m/s-63.3°C2.4%77.1hPa0V08:23:0000:00:0000:00:00
PU1XMG-162026-09-01 00:56:44-22.81556-42.7168469°31km/h18434m-13.8m/s-64.3°C2.5%74.7hPa0V08:23:0000:00:0000:00:00
PU1XMG-162026-09-01 00:56:39-22.81581-42.7173459°38km/h18515m-13.6m/s-64.2°C2.5%73.7hPa0V08:23:0000:00:0000:00:00
PU1XMG-162026-09-01 00:56:27-22.81636-42.7181749°26km/h18666m-14.3m/s-64.2°C2.5%71.9hPa0V08:23:0000:00:0000:00:00
PU1XMG-162026-09-01 00:56:22-22.81653-42.7183537°11km/h18738m-15.1m/s-64.0°C2.5%71.1hPa0V08:23:0000:00:0000:00:00
PU1XMG-162026-09-01 00:56:11-22.81638-42.71837181°16km/h18910m-16.2m/s-62.6°C2.2%69.1hPa0V08:23:0000:00:0000:00:00
PU1XMG-162026-09-01 00:56:06-22.81611-42.71844150°16km/h19008m-17.7m/s-62.4°C2.0%68.1hPa0V00:00:0000:00:0000:00:00
PU1XMG-162026-09-01 00:56:00-22.81590-42.71857148°20km/h19100m-18.6m/s-63.0°C2.0%67.1hPa0V00:00:0000:00:0000:00:00
PU1XMG-162026-09-01 00:55:55-22.81565-42.71873148°20km/h19205m-17.7m/s-63.8°C2.1%65.9hPa0V00:00:0000:00:0000:00:00
PU1XMG-162026-09-01 00:55:49-22.81536-42.71894137°24km/h19306m-18.0m/s-64.4°C2.2%64.9hPa0V00:00:0000:00:0000:00:00
PU1XMG-162026-09-01 00:55:43-22.81521-42.71917105°18km/h19391m-17.7m/s-65.1°C2.4%64.0hPa0V00:00:0000:00:0000:00:00
PU1XMG-162026-09-01 00:55:37-22.81523-42.7195279°26km/h19494m-17.1m/s-65.1°C2.4%62.9hPa0V00:00:0000:00:0000:00:00
PU1XMG-162026-09-01 00:55:33-22.81530-42.7198775°26km/h19578m-16.1m/s-64.3°C2.2%62.0hPa0V00:00:0000:00:0000:00:00
PU1XMG-162026-09-01 00:55:26-22.81545-42.7202556°24km/h19671m-15.5m/s-64.0°C2.2%61.1hPa0V00:00:0000:00:0000:00:00
PU1XMG-162026-09-01 00:55:12-22.81614-42.7206420km/h19892m-17.4m/s-63.7°C2.1%59.0hPa0V00:00:0000:00:0000:00:00
PU1XMG-162026-09-01 00:53:09-22.81414-42.72185113°16km/h21911m-21.2m/s-61.6°C1.8%42.5hPa0V00:00:0000:00:0000:00:00
PU1XMG-162026-09-01 00:53:04-22.81412-42.7221078°24km/h22011m-20.8m/s-61.8°C1.8%41.8hPa0V00:00:0000:00:0000:00:00
PU1XMG-162026-09-01 00:52:58-22.81432-42.7225265°24km/h22138m-22.3m/s-61.7°C1.9%41.1hPa0V00:00:0000:00:0000:00:00
PU1XMG-162026-09-01 00:52:48-22.81446-42.7232586°31km/h22352m-16.0m/s-59.8°C1.6%39.6hPa0V00:00:0000:00:0000:00:00
PU1XMG-162026-09-01 00:52:39-22.81460-42.7239667°27km/h22484m-14.5m/s-58.8°C1.5%38.7hPa0V00:00:0000:00:0000:00:00
PU1XMG-162026-09-01 00:52:30-22.81506-42.7246857°33km/h22627m-13.9m/s-58.5°C1.4%37.9hPa0V00:00:0000:00:0000:00:00
PU1XMG-162026-09-01 00:51:58-22.81562-42.72589100°16km/h23064m-14.6m/s-58.9°C1.4%35.3hPa0V00:00:0000:00:0000:00:00
PU1XMG-162026-09-01 00:51:53-22.81562-42.7261359°13km/h23149m-14.5m/s-59.1°C1.5%34.8hPa0V00:00:0000:00:0000:00:00
PU1XMG-162026-09-01 00:49:41-22.81653-42.73021139°9km/h25511m-22.3m/s-53.4°C1.1%24.0hPa0V00:00:0000:00:0000:00:00
PU1XMG-162026-09-01 00:49:35-22.81664-42.7303438°31km/h25615m-10.7m/s-53.1°C1.1%23.6hPa0V00:00:0000:00:0000:00:00
PU1XMG-162026-09-01 00:49:30-22.81690-42.7307378°33km/h25677m-15.6m/s-52.5°C1.0%23.4hPa0V00:00:0000:00:0000:00:00
PU1XMG-162026-09-01 00:49:24-22.81681-42.73092267°5km/h25806m-15.5m/s-52.7°C1.0%22.9hPa0V00:00:0000:00:0000:00:00
PU1XMG-162026-09-01 00:49:18-22.81701-42.7309738°29km/h25885m-17.0m/s-52.9°C1.0%22.6hPa0V00:00:0000:00:0000:00:00
PU1XMG-162026-09-01 00:49:12-22.81723-42.7314082°33km/h25979m-12.2m/s-52.9°C1.1%22.3hPa0V00:00:0000:00:0000:00:00
PU1XMG-162026-09-01 00:49:05-22.81738-42.7320066°29km/h26062m-13.7m/s-53.2°C1.0%22.0hPa0V00:00:0000:00:0000:00:00
PU1XMG-162026-09-01 00:48:59-22.81745-42.73243101°27km/h26145m-11.5m/s-53.1°C1.1%21.7hPa0V00:00:0000:00:0000:00:00
PU1XMG-162026-09-01 00:48:53-22.81737-42.7329488°27km/h26125m7.5m/s-53.0°C1.0%21.7hPa0V00:00:0000:00:0000:00:00
PU1XMG-162026-09-01 00:47:57-22.81831-42.7367169°27km/h25775m6.1m/s-52.7°C1.0%22.9hPa0V00:00:0000:00:0000:00:00
PU1XMG-162026-09-01 00:47:48-22.81858-42.7371361°18km/h25716m5.5m/s-52.6°C1.0%23.2hPa0V00:00:0000:00:0000:00:00
PU1XMG-162026-09-01 00:47:42-22.81881-42.7375142°27km/h25678m6.6m/s-52.9°C1.0%23.3hPa0V00:00:0000:00:0000:00:00
PU1XMG-162026-09-01 00:47:36-22.81900-42.737710km/h25640m5.4m/s-53.2°C1.1%23.4hPa0V00:00:0000:00:0000:00:00
PU1XMG-162026-09-01 00:47:31-22.81899-42.7378269°13km/h25609m7.8m/s-53.2°C1.1%23.5hPa0V00:00:0000:00:0000:00:00
PU1XMG-162026-09-01 00:47:26-22.81925-42.7380433°24km/h25570m6.7m/s-53.5°C1.1%23.7hPa0V00:00:0000:00:0000:00:00
PU1XMG-162026-09-01 00:47:18-22.81933-42.73809144°5km/h25524m6.8m/s-53.6°C1.1%23.9hPa0V00:00:0000:00:0000:00:00
PU1XMG-162026-09-01 00:47:11-22.81949-42.73821353°20km/h25480m5.8m/s-53.4°C1.1%24.1hPa0V00:00:0000:00:0000:00:00
PU1XMG-162026-09-01 00:47:03-22.81974-42.7383264°15km/h25428m8.6m/s-53.0°C1.1%24.2hPa0V00:00:0000:00:0000:00:00
PU1XMG-162026-09-01 00:46:58-22.81991-42.7385030°26km/h25395m6.4m/s-52.8°C1.1%24.4hPa0V00:00:0000:00:0000:00:00
PU1XMG-162026-09-01 00:46:52-22.82023-42.7386835°22km/h25355m7.5m/s-52.6°C1.1%24.5hPa0V00:00:0000:00:0000:00:00
PU1XMG-162026-09-01 00:46:46-22.82042-42.7389653°24km/h25317m5.5m/s-52.4°C1.0%24.7hPa0V00:00:0000:00:0000:00:00
PU1XMG-162026-09-01 00:46:40-22.82067-42.7392543°26km/h25278m7.2m/s-52.4°C1.0%24.8hPa0V00:00:0000:00:0000:00:00
PU1XMG-162026-09-01 00:46:30-22.82087-42.7398372°24km/h25208m5.8m/s-52.9°C1.1%25.1hPa0V00:00:0000:00:0000:00:00
PU1XMG-162026-09-01 00:46:25-22.82098-42.7401664°26km/h25175m6.2m/s-52.7°C1.1%25.2hPa0V00:00:0000:00:0000:00:00
PU1XMG-162026-09-01 00:46:13-22.82128-42.7407340°26km/h25094m6.3m/s-52.2°C1.0%25.5hPa0V00:00:0000:00:0000:00:00
PU1XMG-162026-09-01 00:46:04-22.82163-42.7410356°13km/h25036m5.9m/s-52.0°C1.1%25.7hPa0V00:00:0000:00:0000:00:00
PU1XMG-162026-09-01 00:45:58-22.82177-42.7411926°13km/h24996m6.6m/s-52.0°C1.0%25.9hPa0V00:00:0000:00:0000:00:00
PU1XMG-162026-09-01 00:45:52-22.82199-42.74116336°11km/h24957m6.2m/s-52.0°C1.0%26.1hPa0V00:00:0000:00:0000:00:00
PU1XMG-162026-09-01 00:45:43-22.82224-42.7412545°22km/h24900m5.7m/s-52.1°C1.0%26.3hPa0V00:00:0000:00:0000:00:00
PU1XMG-162026-09-01 00:45:38-22.82239-42.7414534°13km/h24866m6.3m/s-52.1°C1.0%26.5hPa0V00:00:0000:00:0000:00:00
PU1XMG-162026-09-01 00:45:32-22.82246-42.7415771°16km/h24827m7.3m/s-52.4°C1.0%26.6hPa0V00:00:0000:00:0000:00:00
PU1XMG-162026-09-01 00:45:18-22.82239-42.74245139°22km/h24732m5.9m/s-53.5°C1.1%27.0hPa0V00:00:0000:00:0000:00:00
PU1XMG-162026-09-01 00:44:55-22.82181-42.74338108°20km/h24590m5.5m/s-54.9°C1.2%0hPa0V00:00:0000:00:0000:00:00
PU1XMG-162026-09-01 00:44:49-22.82175-42.74356144°13km/h24552m5.5m/s-54.8°C1.1%27.8hPa0V00:00:0000:00:0000:00:00
PU1XMG-162026-09-01 00:44:43-22.82156-42.74374114°26km/h24514m4.6m/s-55.0°C1.2%27.9hPa0V00:00:0000:00:0000:00:00
PU1XMG-162026-09-01 00:44:38-22.82151-42.74400100°16km/h24482m6.9m/s-55.1°C1.2%28.1hPa0V00:00:0000:00:0000:00:00
PU1XMG-162026-09-01 00:44:33-22.82141-42.74416147°20km/h24452m6.3m/s-55.4°C1.2%28.2hPa0V00:00:0000:00:0000:00:00
PU1XMG-162026-09-01 00:44:20-22.82072-42.74482119°16km/h24369m7.1m/s-55.7°C1.2%28.6hPa0V00:00:0000:00:0000:00:00
PU1XMG-162026-09-01 00:44:11-22.82042-42.74506162°18km/h24311m6.9m/s-56.2°C1.3%28.8hPa0V00:00:0000:00:0000:00:00
PU1XMG-162026-09-01 00:44:06-22.82025-42.74514151°11km/h24281m6.2m/s-56.6°C1.3%29.0hPa0V00:00:0000:00:0000:00:00
PU1XMG-162026-09-01 00:43:56-22.82001-42.74513177°11km/h24217m5.9m/s-56.9°C1.3%29.3hPa0V00:00:0000:00:0000:00:00
PU1XMG-162026-09-01 00:43:50-22.81984-42.74516169°4km/h24180m5.6m/s-57.1°C1.3%29.5hPa0V00:00:0000:00:0000:00:00
PU1XMG-162026-09-01 00:43:45-22.81987-42.74505300°15km/h24147m4.9m/s-57.2°C1.3%29.6hPa0V00:00:0000:00:0000:00:00
PU1XMG-162026-09-01 00:43:39-22.81985-42.74487204°5km/h24112m5.4m/s-57.4°C1.4%29.8hPa0V00:00:0000:00:0000:00:00
PU1XMG-162026-09-01 00:43:34-22.81979-42.74487149°2km/h24080m5.0m/s-57.3°C1.4%29.9hPa0V00:00:0000:00:0000:00:00
PU1XMG-162026-09-01 00:43:29-22.81975-42.74478278°5km/h24044m4.6m/s-57.3°C1.4%30.1hPa0V00:00:0000:00:0000:00:00
PU1XMG-162026-09-01 00:43:22-22.81977-42.744737km/h24007m5.3m/s-57.5°C1.3%30.3hPa0V00:00:0000:00:0000:00:00
PU1XMG-162026-09-01 00:43:16-22.81986-42.74469328°9km/h23969m6.4m/s-57.5°C1.3%30.5hPa0V00:00:0000:00:0000:00:00
PU1XMG-162026-09-01 00:43:11-22.81999-42.74462341°13km/h23938m6.1m/s-57.5°C1.3%30.6hPa0V00:00:0000:00:0000:00:00
PU1XMG-162026-09-01 00:43:04-22.82021-42.7445718°7km/h23896m7.2m/s-58.2°C1.4%30.8hPa0V00:00:0000:00:0000:00:00
PU1XMG-162026-09-01 00:42:59-22.82023-42.7446568°5km/h23867m6.4m/s-58.5°C1.4%31.0hPa0V00:00:0000:00:0000:00:00
PU1XMG-162026-09-01 00:42:53-22.82026-42.7446785°5km/h23828m7.4m/s-58.7°C1.4%31.2hPa0V00:00:0000:00:0000:00:00
PU1XMG-162026-09-01 00:42:48-22.82014-42.74496168°5km/h23760m6.9m/s-59.1°C1.5%31.5hPa0V00:00:0000:00:0000:00:00
PU1XMG-162026-09-01 00:42:45-22.82012-42.7450697°13km/h23723m4.0m/s-59.2°C1.5%31.7hPa0V00:00:0000:00:0000:00:00
PU1XMG-162026-09-01 00:42:29-22.82013-42.7452952°9km/h23681m6.5m/s-59.4°C1.5%31.9hPa0V00:00:0000:00:0000:00:00
PU1XMG-162026-09-01 00:42:24-22.82021-42.7454269°20km/h23651m6.8m/s-59.4°C1.5%32.1hPa0V00:00:0000:00:0000:00:00
PU1XMG-162026-09-01 00:42:18-22.82023-42.7459191°33km/h23613m5.3m/s-59.3°C1.5%32.3hPa0V00:00:0000:00:0000:00:00
PU1XMG-162026-09-01 00:42:13-22.82026-42.7461645°11km/h23584m7.3m/s-59.5°C1.5%32.4hPa0V00:00:0000:00:0000:00:00
PU1XMG-162026-09-01 00:42:08-22.82038-42.7463882°27km/h23554m5.4m/s-59.7°C1.5%32.6hPa0V00:00:0000:00:0000:00:00
PU1XMG-162026-09-01 00:42:02-22.82043-42.7470271°29km/h23509m6.2m/s-59.9°C1.5%32.8hPa0V00:00:0000:00:0000:00:00
PU1XMG-162026-09-01 00:41:56-22.82056-42.7472662°18km/h23478m6.8m/s-60.1°C1.6%33.0hPa0V00:00:0000:00:0000:00:00
PU1XMG-162026-09-01 00:41:50-22.82053-42.74766106°27km/h23443m5.3m/s-60.1°C1.5%33.2hPa0V00:00:0000:00:0000:00:00
PU1XMG-162026-09-01 00:41:40-22.82058-42.74817100°18km/h23380m5.3m/s-59.7°C1.5%33.5hPa0V00:00:0000:00:0000:00:00
PU1XMG-162026-09-01 00:41:34-22.82056-42.7484896°13km/h23342m5.4m/s-59.7°C1.5%33.7hPa0V00:00:0000:00:0000:00:00
PU1XMG-162026-09-01 00:41:28-22.82065-42.7486344°9km/h23305m5.8m/s-59.7°C1.5%33.9hPa0V00:00:0000:00:0000:00:00
PU1XMG-162026-09-01 00:41:22-22.82068-42.74884109°20km/h23268m6.9m/s-59.7°C1.5%34.1hPa0V00:00:0000:00:0000:00:00
PU1XMG-162026-09-01 00:41:18-22.82062-42.74907119°13km/h23236m5.1m/s-59.7°C1.5%34.3hPa0V00:00:0000:00:0000:00:00
PU1XMG-162026-09-01 00:41:09-22.82055-42.7493292°15km/h23188m5.7m/s-59.5°C1.5%34.6hPa0V00:00:0000:00:0000:00:00
PU1XMG-162026-09-01 00:41:03-22.82051-42.74955111°15km/h23150m5.3m/s-59.4°C1.5%34.8hPa0V00:00:0000:00:0000:00:00
PU1XMG-162026-09-01 00:40:58-22.82040-42.74970117°13km/h23117m4.8m/s-59.3°C1.5%34.9hPa0V00:00:0000:00:0000:00:00
PU1XMG-162026-09-01 00:40:50-22.82023-42.75000133°15km/h23065m5.9m/s-59.2°C1.5%35.2hPa0V00:00:0000:00:0000:00:00
PU1XMG-162026-09-01 00:40:42-22.82015-42.75006114°5km/h23012m6.0m/s-59.2°C1.5%35.5hPa0V00:00:0000:00:0000:00:00
PU1XMG-162026-09-01 00:40:36-22.82004-42.75027112°13km/h22974m5.3m/s-59.2°C1.5%35.7hPa0V00:00:0000:00:0000:00:00
PU1XMG-162026-09-01 00:40:30-22.82004-42.7503534°5km/h22937m6.9m/s-59.1°C1.5%35.9hPa0V00:00:0000:00:0000:00:00
PU1XMG-162026-09-01 00:40:24-22.82004-42.7505494°18km/h22898m6.3m/s-59.0°C1.5%36.2hPa0V00:00:0000:00:0000:00:00
PU1XMG-162026-09-01 00:40:19-22.82007-42.7507759°15km/h22866m7.4m/s-58.9°C1.5%36.4hPa0V00:00:0000:00:0000:00:00
PU1XMG-162026-09-01 00:40:12-22.82021-42.7509585°15km/h22822m5.4m/s-58.8°C1.5%36.7hPa0V00:00:0000:00:0000:00:00
PU1XMG-162026-09-01 00:40:07-22.82028-42.7512177°22km/h22790m6.2m/s-58.8°C1.5%36.8hPa0V00:00:0000:00:0000:00:00
PU1XMG-162026-09-01 00:40:01-22.82039-42.7514777°16km/h22752m4.4m/s-58.6°C1.5%37.0hPa0V00:00:0000:00:0000:00:00
PU1XMG-162026-09-01 00:39:55-22.82053-42.7518372°26km/h22716m5.8m/s-58.5°C1.4%37.2hPa0V00:00:0000:00:0000:00:00
PU1XMG-162026-09-01 00:39:50-22.82065-42.7521375°22km/h22685m6.6m/s-58.5°C1.5%37.4hPa0V00:00:0000:00:0000:00:00
PU1XMG-162026-09-01 00:39:44-22.82082-42.7525066°27km/h22648m6.4m/s-58.7°C1.5%37.7hPa0V00:00:0000:00:0000:00:00
PU1XMG-162026-09-01 00:39:38-22.82103-42.7529474°29km/h22612m4.4m/s-58.8°C1.5%37.9hPa0V00:00:0000:00:0000:00:00
PU1XMG-162026-09-01 00:39:33-22.82118-42.7532760°22km/h22583m7.3m/s-58.9°C1.5%38.1hPa0V00:00:0000:00:0000:00:00
PU1XMG-162026-09-01 00:39:27-22.82134-42.7536176°27km/h22546m5.8m/s-59.0°C1.5%38.3hPa0V00:00:0000:00:0000:00:00
PU1XMG-162026-09-01 00:39:21-22.82146-42.7540680°22km/h22510m5.4m/s-58.9°C1.5%38.5hPa0V00:00:0000:00:0000:00:00
PU1XMG-162026-09-01 00:39:15-22.82154-42.7543695°22km/h22472m5.5m/s-59.0°C1.4%38.7hPa0V00:00:0000:00:0000:00:00
PU1XMG-162026-09-01 00:39:04-22.82153-42.7553375°24km/h22406m6.9m/s-59.7°C1.5%39.2hPa0V00:00:0000:00:0000:00:00
PU1XMG-162026-09-01 00:38:58-22.82156-42.75566105°26km/h22372m6.6m/s-60.4°C1.6%39.4hPa0V00:00:0000:00:0000:00:00
PU1XMG-162026-09-01 00:38:54-22.82147-42.75607103°31km/h22342m6.1m/s-60.7°C1.6%39.5hPa0V00:00:0000:00:0000:00:00
PU1XMG-162026-09-01 00:38:47-22.82144-42.7564793°20km/h22307m6.2m/s-60.8°C1.6%39.8hPa0V00:00:0000:00:0000:00:00
PU1XMG-162026-09-01 00:38:41-22.82142-42.7568482°22km/h22277m6.3m/s-61.2°C1.6%40.0hPa0V00:00:0000:00:0000:00:00
PU1XMG-162026-09-01 00:38:36-22.82155-42.7571365°24km/h22248m4.9m/s-61.3°C1.6%40.2hPa0V00:00:0000:00:0000:00:00
PU1XMG-162026-09-01 00:38:30-22.82167-42.7575686°29km/h22212m6.5m/s-61.7°C1.7%40.4hPa0V00:00:0000:00:0000:00:00
PU1XMG-162026-09-01 00:38:25-22.82171-42.7578970°22km/h22183m6.9m/s-62.0°C1.7%40.6hPa0V00:00:0000:00:0000:00:00
PU1XMG-162026-09-01 00:38:19-22.82190-42.7581647°24km/h22149m6.2m/s-62.2°C1.8%40.8hPa0V00:00:0000:00:0000:00:00
PU1XMG-162026-09-01 00:38:14-22.82205-42.7584475°27km/h22121m6.2m/s-62.3°C1.8%41.0hPa0V00:00:0000:00:0000:00:00
PU1XMG-162026-09-01 00:38:09-22.82208-42.7587987°24km/h22093m7.0m/s-62.3°C1.8%41.2hPa0V00:00:0000:00:0000:00:00
PU1XMG-162026-09-01 00:38:03-22.82217-42.7591172°20km/h22059m6.0m/s-62.2°C1.8%41.4hPa0V00:00:0000:00:0000:00:00
PU1XMG-162026-09-01 00:37:58-22.82215-42.7594999°24km/h22025m4.1m/s-62.0°C1.8%41.6hPa0V00:00:0000:00:0000:00:00
PU1XMG-162026-09-01 00:37:52-22.82210-42.7597386°13km/h21997m5.2m/s-61.8°C1.7%41.8hPa0V00:00:0000:00:0000:00:00
PU1XMG-162026-09-01 00:37:46-22.82213-42.7599989°22km/h21963m6.2m/s-61.7°C1.7%42.1hPa0V00:00:0000:00:0000:00:00
PU1XMG-162026-09-01 00:37:40-22.82205-42.76038104°20km/h21932m5.9m/s-61.7°C1.7%42.3hPa0V00:00:0000:00:0000:00:00
PU1XMG-162026-09-01 00:37:35-22.82202-42.7605685°9km/h21904m4.7m/s-61.6°C1.7%42.5hPa0V00:00:0000:00:0000:00:00
PU1XMG-162026-09-01 00:37:29-22.82199-42.7607898°18km/h21871m6.2m/s-61.5°C1.7%42.7hPa0V00:00:0000:00:0000:00:00
PU1XMG-162026-09-01 00:37:23-22.82205-42.7611366°18km/h21833m5.1m/s-61.5°C1.7%43.0hPa0V00:00:0000:00:0000:00:00
PU1XMG-162026-09-01 00:37:15-22.82212-42.7615191°26km/h21795m5.9m/s-61.6°C1.7%43.2hPa0V00:00:0000:00:0000:00:00
PU1XMG-162026-09-01 00:37:10-22.82213-42.7618477°20km/h21767m6.7m/s-61.5°C1.7%43.4hPa0V00:00:0000:00:0000:00:00
PU1XMG-162026-09-01 00:37:04-22.82219-42.7620677°11km/h21734m6.9m/s-61.6°C1.7%43.7hPa0V00:00:0000:00:0000:00:00
PU1XMG-162026-09-01 00:36:58-22.82224-42.7623171°20km/h21701m4.2m/s-61.7°C1.8%43.9hPa0V00:00:0000:00:0000:00:00
PU1XMG-162026-09-01 00:36:52-22.82228-42.7626192°16km/h21667m6.9m/s-61.7°C1.7%44.1hPa0V00:00:0000:00:0000:00:00
PU1XMG-162026-09-01 00:36:47-22.82230-42.7628380°18km/h21640m6.6m/s-61.7°C1.7%44.3hPa0V00:00:0000:00:0000:00:00
PU1XMG-162026-09-01 00:36:42-22.82238-42.7632382°27km/h21608m6.3m/s-61.6°C1.7%44.6hPa0V00:00:0000:00:0000:00:00
PU1XMG-162026-09-01 00:36:35-22.82244-42.7635982°20km/h21577m4.3m/s-61.7°C1.8%44.8hPa0V00:00:0000:00:0000:00:00
PU1XMG-162026-09-01 00:36:30-22.82253-42.7639682°37km/h21550m6.1m/s-61.6°C1.7%45.0hPa0V00:00:0000:00:0000:00:00
PU1XMG-162026-09-01 00:36:25-22.82257-42.7644285°27km/h21524m5.7m/s-61.5°C1.7%45.2hPa0V00:00:0000:00:0000:00:00
PU1XMG-162026-09-01 00:36:19-22.82262-42.7648088°24km/h21490m5.8m/s-61.5°C1.7%45.4hPa0V00:00:0000:00:0000:00:00
PU1XMG-162026-09-01 00:36:14-22.82263-42.76516102°24km/h21461m5.2m/s-61.6°C1.7%45.6hPa0V00:00:0000:00:0000:00:00
PU1XMG-162026-09-01 00:36:09-22.82263-42.7653969°15km/h21434m5.5m/s-61.6°C1.8%45.8hPa0V00:00:0000:00:0000:00:00
PU1XMG-162026-09-01 00:36:03-22.82275-42.7656677°18km/h21401m5.2m/s-61.7°C1.7%46.1hPa0V00:00:0000:00:0000:00:00
PU1XMG-162026-09-01 00:35:56-22.82283-42.7658943°9km/h21362m6.1m/s-61.7°C1.7%46.3hPa0V00:00:0000:00:0000:00:00
PU1XMG-162026-09-01 00:35:22-22.82314-42.7676297°18km/h21171m5.9m/s-61.0°C1.7%47.8hPa0V00:00:0000:00:0000:00:00
PU1XMG-162026-09-01 00:35:13-22.82297-42.76808113°22km/h21120m3.7m/s-60.9°C1.7%48.2hPa0V00:00:0000:00:0000:00:00
PU1XMG-162026-09-01 00:35:04-22.82270-42.76871130°27km/h21071m5.1m/s-61.6°C1.8%48.6hPa0V00:00:0000:00:0000:00:00
PU1XMG-162026-09-01 00:34:59-22.82249-42.76898137°26km/h21042m4.7m/s-61.6°C1.8%48.8hPa0V00:00:0000:00:0000:00:00
PU1XMG-162026-09-01 00:34:52-22.82213-42.76934137°31km/h21000m4.8m/s-61.5°C1.8%49.1hPa0V00:00:0000:00:0000:00:00
PU1XMG-162026-09-01 00:34:46-22.82180-42.76961154°22km/h20964m6.5m/s-61.4°C1.7%49.4hPa0V00:00:0000:00:0000:00:00
PU1XMG-162026-09-01 00:34:41-22.82155-42.76973159°22km/h20934m7.3m/s-61.3°C1.8%49.7hPa0V00:00:0000:00:0000:00:00
PU1XMG-162026-09-01 00:34:35-22.82124-42.76989151°24km/h20900m7.1m/s-61.3°C1.8%49.9hPa0V00:00:0000:00:0000:00:00
PU1XMG-162026-09-01 00:34:29-22.82090-42.76996188°24km/h20864m5.0m/s-61.2°C1.7%50.3hPa0V00:00:0000:00:0000:00:00
PU1XMG-162026-09-01 00:34:24-22.82066-42.76993181°18km/h20836m5.3m/s-61.2°C1.8%50.5hPa0V00:00:0000:00:0000:00:00
PU1XMG-162026-09-01 00:34:19-22.82043-42.76994174°24km/h20806m5.5m/s-61.2°C1.8%50.7hPa0V00:00:0000:00:0000:00:00
PU1XMG-162026-09-01 00:34:13-22.82015-42.76989227°18km/h20769m6.5m/s-61.1°C1.8%51.0hPa0V00:00:0000:00:0000:00:00
PU1XMG-162026-09-01 00:34:07-22.81999-42.76979164°9km/h20736m6.2m/s-61.2°C1.8%51.3hPa0V00:00:0000:00:0000:00:00
PU1XMG-162026-09-01 00:34:02-22.81984-42.76979223°15km/h20707m6.0m/s-61.3°C1.8%51.5hPa0V00:00:0000:00:0000:00:00
PU1XMG-162026-09-01 00:33:56-22.81963-42.76949237°18km/h20672m4.2m/s-61.1°C1.8%51.8hPa0V00:00:0000:00:0000:00:00
PU1XMG-162026-09-01 00:33:51-22.81947-42.76937215°13km/h20646m5.9m/s-60.9°C1.7%52.0hPa0V00:00:0000:00:0000:00:00
PU1XMG-162026-09-01 00:33:45-22.81932-42.76913261°20km/h20612m5.4m/s-60.9°C1.7%52.3hPa0V00:00:0000:00:0000:00:00
PU1XMG-162026-09-01 00:33:39-22.81924-42.76894207°7km/h20578m5.2m/s-61.0°C1.7%52.6hPa0V00:00:0000:00:0000:00:00
PU1XMG-162026-09-01 00:33:34-22.81909-42.76883249°20km/h20551m5.6m/s-61.4°C1.8%52.9hPa0V00:00:0000:00:0000:00:00
PU1XMG-162026-09-01 00:33:28-22.81906-42.76857300°4km/h20516m5.3m/s-61.9°C1.9%53.2hPa0V00:00:0000:00:0000:00:00
PU1XMG-162026-09-01 00:33:23-22.81902-42.76862205°7km/h20483m5.8m/s-62.2°C1.9%53.4hPa0V00:00:0000:00:0000:00:00
PU1XMG-162026-09-01 00:32:41-22.81898-42.76785248°7km/h20254m5.0m/s-62.4°C1.9%55.5hPa0V00:00:0000:00:0000:00:00
PU1XMG-162026-09-01 00:32:32-22.81890-42.76757251°20km/h20201m6.8m/s-62.8°C2.0%55.9hPa0V00:00:0000:00:0000:00:00
PU1XMG-162026-09-01 00:32:27-22.81862-42.76726215°20km/h20163m5.7m/s-63.2°C2.1%56.3hPa0V00:00:0000:00:0000:00:00
PU1XMG-162026-09-01 00:32:19-22.81843-42.76700253°24km/h20131m4.5m/s-63.0°C2.1%56.6hPa0V00:00:0000:00:0000:00:00
PU1XMG-162026-09-01 00:32:14-22.81831-42.76665245°20km/h20096m5.5m/s-62.8°C2.1%56.9hPa0V00:00:0000:00:0000:00:00
PU1XMG-162026-09-01 00:32:07-22.81828-42.76638282°20km/h20062m5.2m/s-62.7°C2.1%57.2hPa0V00:00:0000:00:0000:00:00
PU1XMG-162026-09-01 00:32:02-22.81834-42.76613280°15km/h20032m4.7m/s-62.7°C2.0%57.5hPa0V00:00:0000:00:0000:00:00
PU1XMG-162026-09-01 00:31:56-22.81841-42.76591303°15km/h19994m6.3m/s-62.8°C2.1%57.8hPa0V00:00:0000:00:0000:00:00
PU1XMG-162026-09-01 00:31:51-22.81854-42.76572329°18km/h19965m5.4m/s-62.9°C2.1%58.1hPa0V00:00:0000:00:0000:00:00
PU1XMG-162026-09-01 00:31:46-22.81872-42.76559342°15km/h19937m5.9m/s-62.8°C2.1%58.4hPa0V00:00:0000:00:0000:00:00
PU1XMG-162026-09-01 00:31:40-22.81896-42.76555350°22km/h19905m4.9m/s-62.8°C2.1%58.7hPa0V00:00:0000:00:0000:00:00
PU1XMG-162026-09-01 00:31:33-22.81936-42.76549359°22km/h19867m5.2m/s-63.0°C2.2%59.1hPa0V00:00:0000:00:0000:00:00
PU1XMG-162026-09-01 00:31:28-22.81969-42.76547359°26km/h19841m6.1m/s-63.0°C2.2%59.3hPa0V00:00:0000:00:0000:00:00
PU1XMG-162026-09-01 00:31:23-22.82009-42.7655519°24km/h19808m5.1m/s-62.9°C2.2%59.6hPa0V00:00:0000:00:0000:00:00
PU1XMG-162026-09-01 00:31:17-22.82039-42.7656822°24km/h19780m4.1m/s-63.0°C2.1%59.9hPa0V00:00:0000:00:0000:00:00
PU1XMG-162026-09-01 00:31:11-22.82070-42.7658026°22km/h19747m6.2m/s-63.1°C2.2%60.2hPa0V00:00:0000:00:0000:00:00
PU1XMG-162026-09-01 00:31:04-22.82106-42.7660841°27km/h19709m6.2m/s-63.1°C2.2%60.6hPa0V00:00:0000:00:0000:00:00
PU1XMG-162026-09-01 00:30:57-22.82138-42.7664151°20km/h19671m5.2m/s-63.3°C2.2%61.0hPa0V00:00:0000:00:0000:00:00
PU1XMG-162026-09-01 00:30:51-22.82162-42.7667050°24km/h19639m5.0m/s-63.5°C2.3%61.3hPa0V00:00:0000:00:0000:00:00
PU1XMG-162026-09-01 00:30:35-22.82201-42.7680165°31km/h19547m6.7m/s-63.8°C2.3%62.2hPa0V00:00:0000:00:0000:00:00
PU1XMG-162026-09-01 00:29:06-22.82062-42.77283155°18km/h19080m5.3m/s-62.8°C2.3%67.1hPa0V00:00:0000:00:0000:00:00
PU1XMG-162026-09-01 00:28:53-22.82000-42.77314169°18km/h19007m5.1m/s-62.2°C2.3%67.9hPa0V00:00:0000:00:0000:00:00
PU1XMG-162026-09-01 00:28:46-22.81972-42.77326160°22km/h18975m4.4m/s-62.0°C2.2%68.3hPa0V00:00:0000:00:0000:00:00
PU1XMG-162026-09-01 00:28:42-22.81949-42.77330189°16km/h18949m6.1m/s-61.8°C2.3%68.6hPa0V00:00:0000:00:0000:00:00
PU1XMG-162026-09-01 00:28:35-22.81925-42.77329165°15km/h18920m5.0m/s-61.7°C2.2%68.9hPa0V00:00:0000:00:0000:00:00
PU1XMG-162026-09-01 00:28:29-22.81899-42.77336175°18km/h18888m6.3m/s-62.1°C2.2%69.2hPa0V00:00:0000:00:0000:00:00
PU1XMG-162026-09-01 00:28:23-22.81876-42.77332197°13km/h18856m4.4m/s-62.2°C2.3%69.6hPa0V00:00:0000:00:0000:00:00
PU1XMG-162026-09-01 00:28:18-22.81867-42.77330185°9km/h18830m4.5m/s-62.1°C2.3%69.9hPa0V00:00:0000:00:0000:00:00
PU1XMG-162026-09-01 00:28:13-22.81859-42.77324242°9km/h18803m4.8m/s-62.3°C2.4%70.2hPa0V00:00:0000:00:0000:00:00
PU1XMG-162026-09-01 00:28:07-22.81855-42.77312291°4km/h18771m5.8m/s-62.4°C2.4%70.6hPa0V00:00:0000:00:0000:00:00
PU1XMG-162026-09-01 00:28:02-22.81858-42.7731011°5km/h18744m4.7m/s-62.3°C2.4%70.9hPa0V00:00:0000:00:0000:00:00
PU1XMG-162026-09-01 00:27:57-22.81865-42.77309343°5km/h18717m4.3m/s-62.5°C2.4%71.2hPa0V00:00:0000:00:0000:00:00
PU1XMG-162026-09-01 00:27:52-22.81873-42.773075km/h18685m5.2m/s-62.9°C2.5%71.6hPa0V00:00:0000:00:0000:00:00
PU1XMG-162026-09-01 00:27:46-22.81886-42.7731135°13km/h18658m4.9m/s-63.3°C2.6%71.9hPa0V00:00:0000:00:0000:00:00
PU1XMG-162026-09-01 00:27:40-22.81907-42.7732939°18km/h18627m6.2m/s-63.6°C2.7%72.2hPa0V00:00:0000:00:0000:00:00
PU1XMG-162026-09-01 00:27:34-22.81931-42.7734637°27km/h18594m5.1m/s-63.4°C2.6%72.7hPa0V00:00:0000:00:0000:00:00
PU1XMG-162026-09-01 00:27:29-22.81962-42.7737746°37km/h18565m6.8m/s-63.2°C2.6%73.0hPa0V00:00:0000:00:0000:00:00
PU1XMG-162026-09-01 00:27:24-22.81995-42.7741350°24km/h18533m4.6m/s-63.2°C2.6%73.3hPa0V00:00:0000:00:0000:00:00
PU1XMG-162026-09-01 00:27:18-22.82021-42.7743848°31km/h18506m5.0m/s-63.7°C2.7%73.7hPa0V00:00:0000:00:0000:00:00
PU1XMG-162026-09-01 00:27:12-22.82058-42.7748453°38km/h18473m6.1m/s-63.9°C2.8%74.0hPa0V00:00:0000:00:0000:00:00
PU1XMG-162026-09-01 00:27:07-22.82082-42.7751862°24km/h18446m5.0m/s-63.9°C2.8%74.4hPa0V00:00:0000:00:0000:00:00
PU1XMG-162026-09-01 00:27:01-22.82101-42.7755562°29km/h18412m4.5m/s-63.9°C2.9%74.8hPa0V00:00:0000:00:0000:00:00
PU1XMG-162026-09-01 00:26:56-22.82115-42.7759167°26km/h18387m5.1m/s-63.9°C2.9%75.1hPa0V00:00:0000:00:0000:00:00
PU1XMG-162026-09-01 00:26:50-22.82125-42.7762981°27km/h18355m5.3m/s-63.8°C2.9%75.5hPa0V00:00:0000:00:0000:00:00
PU1XMG-162026-09-01 00:26:45-22.82130-42.7767084°33km/h18329m5.3m/s-63.7°C2.9%75.8hPa0V00:00:0000:00:0000:00:00
PU1XMG-162026-09-01 00:26:39-22.82135-42.7772286°33km/h18296m4.9m/s-63.7°C3.0%76.2hPa0V00:00:0000:00:0000:00:00
PU1XMG-162026-09-01 00:26:34-22.82140-42.7776592°35km/h18271m5.3m/s-63.5°C3.0%76.5hPa0V00:00:0000:00:0000:00:00
PU1XMG-162026-09-01 00:26:29-22.82138-42.7781593°27km/h18239m6.0m/s-63.4°C3.1%76.9hPa0V00:00:0000:00:0000:00:00
PU1XMG-162026-09-01 00:26:23-22.82140-42.7785384°27km/h18215m6.2m/s-63.2°C3.1%77.2hPa0V00:00:0000:00:0000:00:00
PU1XMG-162026-09-01 00:26:18-22.82142-42.7789389°27km/h18189m5.1m/s-63.0°C3.2%77.6hPa0V00:00:0000:00:0000:00:00
PU1XMG-162026-09-01 00:26:13-22.82137-42.77931103°27km/h18163m4.1m/s-62.9°C3.3%77.9hPa0V00:00:0000:00:0000:00:00
PU1XMG-162026-09-01 00:26:07-22.82129-42.7798297°35km/h18131m6.3m/s-62.8°C3.2%78.3hPa0V00:00:0000:00:0000:00:00
PU1XMG-162026-09-01 00:26:02-22.82125-42.7803698°29km/h18102m3.4m/s-62.5°C3.3%78.7hPa0V00:00:0000:00:0000:00:00
PU1XMG-162026-09-01 00:25:56-22.82120-42.78078100°31km/h18076m4.4m/s-62.3°C3.3%79.0hPa0V00:00:0000:00:0000:00:00
PU1XMG-162026-09-01 00:25:50-22.82113-42.7813098°33km/h18046m6.0m/s-62.1°C3.4%79.4hPa0V00:00:0000:00:0000:00:00
PU1XMG-162026-09-01 00:25:45-22.82109-42.7818298°31km/h18014m2.9m/s-62.2°C3.5%79.8hPa0V00:00:0000:00:0000:00:00
PU1XMG-162026-09-01 00:25:39-22.82105-42.7822596°29km/h17991m3.6m/s-62.3°C3.5%80.2hPa0V00:00:0000:00:0000:00:00
PU1XMG-162026-09-01 00:25:33-22.82104-42.7827396°29km/h17960m5.6m/s-62.9°C3.7%80.6hPa0V00:00:0000:00:0000:00:00
PU1XMG-162026-09-01 00:24:44-22.82026-42.7863666°35km/h17717m4.0m/s-64.7°C6.9%83.8hPa0V00:00:0000:00:0000:00:00
PU1XMG-162026-09-01 00:24:37-22.82037-42.7870092°38km/h17681m5.3m/s-64.5°C7.7%84.3hPa0V00:00:0000:00:0000:00:00
PU1XMG-162026-09-01 00:24:25-22.82033-42.7880791°35km/h17624m5.8m/s-64.0°C9.0%85.0hPa0V00:00:0000:00:0000:00:00
PU1XMG-162026-09-01 00:24:19-22.82038-42.7886283°29km/h17596m4.9m/s-63.9°C9.6%85.5hPa0V00:00:0000:00:0000:00:00
PU1XMG-162026-09-01 00:24:14-22.82039-42.7889990°29km/h17571m4.0m/s-64.0°C10.5%85.8hPa0V00:00:0000:00:0000:00:00
PU1XMG-162026-09-01 00:24:08-22.82040-42.7895485°37km/h17543m5.7m/s-64.3°C11.9%86.2hPa0V00:00:0000:00:0000:00:00
PU1XMG-162026-09-01 00:24:01-22.82051-42.7902178°27km/h17506m5.3m/s-65.4°C13.9%86.7hPa0V00:00:0000:00:0000:00:00
PU1XMG-162026-09-01 00:23:53-22.82064-42.7910376°47km/h17462m4.9m/s-65.6°C14.7%87.3hPa0V00:00:0000:00:0000:00:00
PU1XMG-162026-09-01 00:23:47-22.82082-42.7916172°46km/h17437m4.9m/s-65.9°C14.4%87.7hPa0V00:00:0000:00:0000:00:00
PU1XMG-162026-09-01 00:23:42-22.82101-42.7923977°55km/h17407m4.0m/s-67.9°C16.1%88.1hPa0V00:00:0000:00:0000:00:00
PU1XMG-162026-09-01 00:23:36-22.82116-42.7931581°57km/h17383m5.3m/s-69.1°C17.0%88.5hPa0V00:00:0000:00:0000:00:00
PU1XMG-162026-09-01 00:23:30-22.82125-42.7940786°60km/h17351m6.1m/s-71.2°C19.3%89.0hPa0V00:00:0000:00:0000:00:00
PU1XMG-162026-09-01 00:23:25-22.82131-42.7949788°73km/h17325m6.9m/s-72.9°C22.8%89.3hPa0V00:00:0000:00:0000:00:00
PU1XMG-162026-09-01 00:23:04-22.82122-42.7984498°42km/h17190m5.3m/s-76.9°C28.4%91.4hPa0V00:00:0000:00:0000:00:00
PU1XMG-162026-09-01 00:22:36-22.82002-42.80053119°33km/h17019m4.8m/s-77.6°C30.1%94.2hPa0V00:00:0000:00:0000:00:00
PU1XMG-162026-09-01 00:22:31-22.81982-42.80090126°31km/h16991m4.5m/s-78.5°C32.0%94.7hPa0V00:00:0000:00:0000:00:00
PU1XMG-162026-09-01 00:22:27-22.81961-42.80126121°35km/h16962m6.8m/s-78.8°C32.6%95.1hPa0V00:00:0000:00:0000:00:00
PU1XMG-162026-09-01 00:22:20-22.81932-42.80179124°38km/h16928m4.7m/s-78.9°C32.4%95.7hPa0V00:00:0000:00:0000:00:00
PU1XMG-162026-09-01 00:22:15-22.81903-42.80217129°35km/h16901m3.5m/s-79.2°C32.8%96.2hPa0V00:00:0000:00:0000:00:00
PU1XMG-162026-09-01 00:22:10-22.81872-42.80255137°42km/h16875m5.5m/s-79.3°C33.8%96.6hPa0V00:00:0000:00:0000:00:00
PU1XMG-162026-09-01 00:22:05-22.81834-42.80291143°37km/h16850m6.3m/s-79.1°C32.8%97.0hPa0V00:00:0000:00:0000:00:00
PU1XMG-162026-09-01 00:21:59-22.81790-42.80323147°40km/h16819m5.6m/s-78.9°C32.2%97.5hPa0V00:00:0000:00:0000:00:00
PU1XMG-162026-09-01 00:21:53-22.81734-42.80364148°40km/h16789m4.1m/s-78.8°C32.0%98.1hPa0V00:00:0000:00:0000:00:00
PU1XMG-162026-09-01 00:21:46-22.81676-42.80396155°37km/h16754m6.1m/s-78.6°C31.1%98.7hPa0V00:00:0000:00:0000:00:00
PU1XMG-162026-09-01 00:21:42-22.81633-42.80422147°42km/h16727m4.7m/s-78.4°C31.0%99.2hPa0V00:00:0000:00:0000:00:00
PU1XMG-162026-09-01 00:21:35-22.81578-42.80460152°38km/h16698m5.7m/s-78.1°C30.0%99.7hPa0V00:00:0000:00:0000:00:00
PU1XMG-162026-09-01 00:21:29-22.81529-42.80492146°40km/h16667m4.6m/s-77.8°C29.3%100.2hPa0V00:00:0000:00:0000:00:00
PU1XMG-162026-09-01 00:21:24-22.81485-42.80524151°42km/h16641m5.9m/s-77.6°C28.5%100.6hPa0V00:00:0000:00:0000:00:00
PU1XMG-162026-09-01 00:21:19-22.81432-42.80557143°40km/h16611m4.3m/s-77.4°C28.0%101.2hPa0V00:00:0000:00:0000:00:00
PU1XMG-162026-09-01 00:21:17-22.81392-42.80592144°44km/h16587m5.7m/s-77.1°C27.2%101.6hPa0V00:00:0000:00:0000:00:00
PU1XMG-162026-09-01 00:21:07-22.81335-42.80630152°44km/h16559m2.8m/s-76.9°C26.4%102.1hPa0V00:00:0000:00:0000:00:00
PU1XMG-162026-09-01 00:21:02-22.81289-42.80660144°42km/h16534m4.0m/s-76.9°C26.2%102.5hPa0V00:00:0000:00:0000:00:00
PU1XMG-162026-09-01 00:20:57-22.81249-42.80696139°42km/h16507m6.1m/s-76.8°C25.7%103.0hPa0V00:00:0000:00:0000:00:00
PU1XMG-162026-09-01 00:20:51-22.81199-42.80735150°42km/h16476m4.7m/s-76.8°C25.4%103.5hPa0V00:00:0000:00:0000:00:00
PU1XMG-162026-09-01 00:20:45-22.81145-42.80780141°46km/h16448m2.9m/s-76.6°C25.2%104.1hPa0V00:00:0000:00:0000:00:00
PU1XMG-162026-09-01 00:20:40-22.81101-42.80820142°46km/h16425m6.2m/s-76.5°C24.3%104.5hPa0V00:00:0000:00:0000:00:00
PU1XMG-162026-09-01 00:20:35-22.81046-42.80867144°46km/h16392m5.4m/s-76.4°C24.3%105.1hPa0V00:00:0000:00:0000:00:00
PU1XMG-162026-09-01 00:20:28-22.80990-42.80911147°44km/h16363m3.0m/s-76.3°C24.0%105.6hPa0V00:00:0000:00:0000:00:00
PU1XMG-162026-09-01 00:20:22-22.80936-42.80951142°42km/h16331m4.3m/s-76.1°C23.6%106.2hPa0V00:00:0000:00:0000:00:00
PU1XMG-162026-09-01 00:20:16-22.80880-42.80992150°42km/h16301m5.4m/s-76.2°C22.8%106.7hPa0V00:00:0000:00:0000:00:00
PU1XMG-162026-09-01 00:20:11-22.80835-42.81020151°40km/h16275m6.2m/s-76.0°C22.7%107.2hPa0V00:00:0000:00:0000:00:00
PU1XMG-162026-09-01 00:20:05-22.80786-42.81046151°37km/h16245m5.6m/s-75.8°C22.4%107.8hPa0V00:00:0000:00:0000:00:00
PU1XMG-162026-09-01 00:20:00-22.80740-42.81075152°31km/h16212m5.9m/s-75.7°C22.7%108.4hPa0V00:00:0000:00:0000:00:00
PU1XMG-162026-09-01 00:19:53-22.80695-42.81099144°33km/h16182m4.1m/s-75.6°C21.7%109.0hPa0V00:00:0000:00:0000:00:00
PU1XMG-162026-09-01 00:19:48-22.80666-42.81123138°26km/h16152m5.0m/s-75.4°C21.5%109.5hPa0V00:00:0000:00:0000:00:00
PU1XMG-162026-09-01 00:19:42-22.80633-42.81151146°29km/h16120m6.1m/s-75.0°C21.2%110.2hPa0V00:00:0000:00:0000:00:00
PU1XMG-162026-09-01 00:19:37-22.80602-42.81177146°29km/h16094m5.0m/s-74.8°C21.3%110.7hPa0V00:00:0000:00:0000:00:00
PU1XMG-162026-09-01 00:19:31-22.80572-42.81206140°26km/h16064m6.1m/s-74.5°C20.5%111.2hPa0V00:00:0000:00:0000:00:00
PU1XMG-162026-09-01 00:19:26-22.80546-42.81229140°27km/h16036m5.6m/s-74.2°C20.2%111.8hPa0V00:00:0000:00:0000:00:00
PU1XMG-162026-09-01 00:19:21-22.80519-42.81253141°29km/h16009m4.0m/s-74.0°C20.0%112.3hPa0V00:00:0000:00:0000:00:00
PU1XMG-162026-09-01 00:19:16-22.80486-42.81283140°27km/h15977m5.2m/s-73.7°C19.7%112.9hPa0V00:00:0000:00:0000:00:00
PU1XMG-162026-09-01 00:19:10-22.80460-42.81308143°27km/h15950m4.8m/s-73.5°C19.3%113.4hPa0V00:00:0000:00:0000:00:00
PU1XMG-162026-09-01 00:18:53-22.80373-42.81387149°26km/h15856m5.7m/s-72.6°C18.5%115.3hPa0V00:00:0000:00:0000:00:00
PU1XMG-162026-09-01 00:18:47-22.80333-42.81412133°22km/h15817m7.3m/s-72.3°C18.0%116.0hPa0V00:00:0000:00:0000:00:00
PU1XMG-162026-09-01 00:18:42-22.80318-42.81436137°26km/h15791m2.1m/s-72.2°C19.2%116.6hPa0V00:00:0000:00:0000:00:00
PU1XMG-162026-09-01 00:18:36-22.80282-42.81451170°33km/h15763m5.5m/s-72.2°C18.6%117.1hPa0V00:00:0000:00:0000:00:00
PU1XMG-162026-09-01 00:18:30-22.80256-42.8146877°18km/h15731m5.9m/s-71.8°C17.0%117.8hPa0V00:00:0000:00:0000:00:00
PU1XMG-162026-09-01 00:18:25-22.80243-42.81498145°31km/h15690m6.6m/s-71.5°C16.4%118.6hPa0V00:00:0000:00:0000:00:00
PU1XMG-162026-09-01 00:18:19-22.80214-42.81515158°26km/h15662m6.5m/s-71.2°C16.3%119.2hPa0V00:00:0000:00:0000:00:00
PU1XMG-162026-09-01 00:18:14-22.80186-42.81535126°27km/h15628m5.9m/s-70.9°C15.7%119.9hPa0V00:00:0000:00:0000:00:00
PU1XMG-162026-09-01 00:18:08-22.80162-42.81567139°29km/h15599m6.5m/s-70.6°C14.6%120.5hPa0V00:00:0000:00:0000:00:00
PU1XMG-162026-09-01 00:18:01-22.80130-42.81597128°33km/h15559m7.3m/s-70.2°C13.9%121.4hPa0V00:00:0000:00:0000:00:00
PU1XMG-162026-09-01 00:17:55-22.80106-42.81636120°27km/h15526m10.9m/s-69.8°C13.6%122.2hPa0V00:00:0000:00:0000:00:00
PU1XMG-162026-09-01 00:17:50-22.80087-42.81668123°13km/h15498m8.9m/s-69.5°C13.3%123.0hPa0V00:00:0000:00:0000:00:00
PU1XMG-162026-09-01 00:17:44-22.80069-42.81677150°37km/h15481m11.7m/s-69.0°C11.2%123.8hPa0V00:00:0000:00:0000:00:00
PU1XMG-162026-09-01 00:17:34-22.80032-42.81742169°55km/h15341m27.8m/s-68.6°C9.7%125.8hPa0V00:00:0000:00:0000:00:00
PU1XMG-162026-09-01 00:17:29-22.80027-42.8180583°38km/h15288m4.4m/s-68.3°C9.7%126.8hPa0V00:00:0000:00:0000:00:00
PU1XMG-162026-09-01 00:17:23-22.80026-42.81858103°40km/h15261m5.2m/s-68.2°C9.3%127.3hPa0V00:00:0000:00:0000:00:00
PU1XMG-162026-09-01 00:17:18-22.80017-42.8191486°44km/h15234m4.8m/s-67.9°C9.3%127.9hPa0V00:00:0000:00:0000:00:00
PU1XMG-162026-09-01 00:17:14-22.80019-42.8197794°51km/h15205m6.8m/s-67.7°C9.0%128.5hPa0V00:00:0000:00:0000:00:00
PU1XMG-162026-09-01 00:17:07-22.80021-42.8205980°47km/h15171m3.7m/s-67.5°C8.7%129.2hPa0V00:00:0000:00:0000:00:00
PU1XMG-162026-09-01 00:17:02-22.80025-42.8212389°46km/h15144m6.8m/s-67.3°C8.3%129.8hPa0V00:00:0000:00:0000:00:00
PU1XMG-162026-09-01 00:16:56-22.80032-42.8220787°55km/h15111m4.3m/s-67.0°C8.2%130.6hPa0V00:00:0000:00:0000:00:00
PU1XMG-162026-09-01 00:16:50-22.80037-42.8229586°49km/h15083m5.8m/s-66.7°C8.0%131.1hPa0V00:00:0000:00:0000:00:00
PU1XMG-162026-09-01 00:16:44-22.80046-42.8238185°57km/h15053m3.9m/s-66.5°C7.9%131.8hPa0V00:00:0000:00:0000:00:00
PU1XMG-162026-09-01 00:16:34-22.80064-42.8253078°58km/h14999m6.4m/s-66.1°C7.5%133.0hPa0V00:00:0000:00:0000:00:00
PU1XMG-162026-09-01 00:16:28-22.80077-42.8262589°53km/h14969m3.9m/s-65.8°C7.2%133.6hPa0V00:00:0000:00:0000:00:00
PU1XMG-162026-09-01 00:16:23-22.80081-42.8269282°47km/h14945m5.5m/s-65.5°C7.2%134.2hPa0V00:00:0000:00:0000:00:00
PU1XMG-162026-09-01 00:16:18-22.80097-42.8278479°68km/h14913m4.9m/s-65.3°C7.0%134.8hPa0V00:00:0000:00:0000:00:00
PU1XMG-162026-09-01 00:16:11-22.80108-42.8288086°53km/h14884m3.4m/s-65.0°C6.8%135.5hPa0V00:00:0000:00:0000:00:00
PU1XMG-162026-09-01 00:16:06-22.80120-42.8295376°53km/h14856m4.4m/s-64.9°C6.8%136.1hPa0V00:00:0000:00:0000:00:00
PU1XMG-162026-09-01 00:16:00-22.80142-42.8303575°49km/h14827m6.9m/s-64.7°C6.7%136.7hPa0V00:00:0000:00:0000:00:00
PU1XMG-162026-09-01 00:15:54-22.80163-42.8312478°58km/h14797m6.1m/s-64.4°C6.3%137.4hPa0V00:00:0000:00:0000:00:00
PU1XMG-162026-09-01 00:15:49-22.80178-42.8320477°60km/h14768m6.2m/s-64.3°C6.3%138.0hPa0V00:00:0000:00:0000:00:00
PU1XMG-162026-09-01 00:15:43-22.80209-42.8329568°58km/h14736m3.1m/s-64.3°C6.3%138.8hPa0V00:00:0000:00:0000:00:00
PU1XMG-162026-09-01 00:15:38-22.80236-42.8337370°64km/h14714m3.9m/s-64.1°C6.1%139.3hPa0V00:00:0000:00:0000:00:00
PU1XMG-162026-09-01 00:15:32-22.80273-42.8347167°64km/h14684m4.7m/s-63.9°C6.3%140.0hPa0V00:00:0000:00:0000:00:00
PU1XMG-162026-09-01 00:15:27-22.80310-42.8354969°64km/h14662m4.3m/s-63.7°C6.1%140.5hPa0V00:00:0000:00:0000:00:00
PU1XMG-162026-09-01 00:15:22-22.80341-42.8367077°77km/h14634m4.0m/s-63.5°C5.9%141.2hPa0V00:00:0000:00:0000:00:00
PU1XMG-162026-09-01 00:15:16-22.80379-42.8378469°71km/h14597m6.4m/s-63.4°C5.9%142.0hPa0V00:00:0000:00:0000:00:00
PU1XMG-162026-09-01 00:15:10-22.80414-42.8387264°69km/h14567m8.5m/s-63.2°C5.9%142.7hPa0V00:00:0000:00:0000:00:00
PU1XMG-162026-09-01 00:15:04-22.80462-42.8398471°75km/h14529m4.2m/s-62.9°C5.9%143.6hPa0V00:00:0000:00:0000:00:00
PU1XMG-162026-09-01 00:15:00-22.80502-42.8407862°75km/h14502m7.0m/s-62.7°C5.8%144.2hPa0V00:00:0000:00:0000:00:00
PU1XMG-162026-09-01 00:14:53-22.80551-42.8418679°73km/h14467m6.6m/s-62.4°C5.6%145.0hPa0V00:00:0000:00:0000:00:00
PU1XMG-162026-09-01 00:14:48-22.80564-42.8429378°77km/h14445m3.9m/s-62.3°C5.8%145.5hPa0V00:00:0000:00:0000:00:00
PU1XMG-162026-09-01 00:14:42-22.80608-42.8439960°64km/h14396m4.8m/s-62.0°C5.6%146.6hPa0V00:00:0000:00:0000:00:00
PU1XMG-162026-09-01 00:14:37-22.80632-42.8448275°71km/h14369m7.6m/s-62.0°C5.4%147.2hPa0V00:00:0000:00:0000:00:00
PU1XMG-162026-09-01 00:14:33-22.80692-42.8459361°108km/h14324m8.9m/s-62.5°C5.6%148.3hPa0V00:00:0000:00:0000:00:00
PU1XMG-162026-09-01 00:14:26-22.80757-42.8474564°100km/h14287m4.8m/s-62.2°C5.5%149.3hPa0V00:00:0000:00:0000:00:00
PU1XMG-162026-09-01 00:14:22-22.80816-42.8486865°106km/h14263m2.8m/s-62.0°C5.5%149.8hPa0V00:00:0000:00:0000:00:00
PU1XMG-162026-09-01 00:14:16-22.80866-42.8499869°100km/h14239m4.8m/s-61.8°C5.5%150.4hPa0V00:00:0000:00:0000:00:00
PU1XMG-162026-09-01 00:14:11-22.80914-42.8512570°99km/h14215m4.0m/s-61.5°C5.4%151.0hPa0V00:00:0000:00:0000:00:00
PU1XMG-162026-09-01 00:14:06-22.80962-42.8525168°100km/h14192m3.7m/s-61.3°C5.3%151.6hPa0V00:00:0000:00:0000:00:00
PU1XMG-162026-09-01 00:14:00-22.81018-42.8539671°93km/h14164m5.0m/s-61.0°C5.1%152.2hPa0V00:00:0000:00:0000:00:00
PU1XMG-162026-09-01 00:13:55-22.81062-42.8552269°104km/h14143m6.5m/s-60.8°C5.0%152.7hPa0V00:00:0000:00:0000:00:00
PU1XMG-162026-09-01 00:13:50-22.81123-42.8568269°104km/h14115m4.8m/s-60.5°C5.1%153.5hPa0V00:00:0000:00:0000:00:00
PU1XMG-162026-09-01 00:13:44-22.81184-42.8583467°104km/h14088m6.1m/s-60.3°C5.2%154.2hPa0V00:00:0000:00:0000:00:00
PU1XMG-162026-09-01 00:13:39-22.81238-42.8596967°111km/h14062m5.5m/s-60.0°C5.1%154.8hPa0V00:00:0000:00:0000:00:00
PU1XMG-162026-09-01 00:13:33-22.81288-42.8610869°106km/h14033m7.3m/s-59.8°C4.9%155.5hPa0V00:00:0000:00:0000:00:00
PU1XMG-162026-09-01 00:13:28-22.81341-42.8623865°106km/h14003m5.1m/s-59.5°C5.0%156.3hPa0V00:00:0000:00:0000:00:00
PU1XMG-162026-09-01 00:13:22-22.81404-42.8639671°108km/h13972m5.2m/s-59.4°C5.0%157.0hPa0V00:00:0000:00:0000:00:00
PU1XMG-162026-09-01 00:13:18-22.81451-42.8653571°106km/h13945m4.6m/s-59.3°C5.2%157.7hPa0V00:00:0000:00:0000:00:00
PU1XMG-162026-09-01 00:13:12-22.81499-42.8667370°108km/h13921m4.2m/s-59.2°C5.2%158.2hPa0V00:00:0000:00:0000:00:00
PU1XMG-162026-09-01 00:13:06-22.81558-42.8684373°111km/h13892m4.3m/s-59.0°C5.2%158.9hPa0V00:00:0000:00:0000:00:00
PU1XMG-162026-09-01 00:13:01-22.81601-42.8698872°111km/h13870m5.3m/s-58.8°C5.3%159.6hPa0V00:00:0000:00:0000:00:00
PU1XMG-162026-09-01 00:12:55-22.81659-42.8715470°104km/h13839m3.2m/s-58.6°C5.4%160.3hPa0V00:00:0000:00:0000:00:00
PU1XMG-162026-09-01 00:12:50-22.81705-42.8729171°106km/h13814m4.5m/s-58.4°C5.5%160.9hPa0V00:00:0000:00:0000:00:00
PU1XMG-162026-09-01 00:12:45-22.81754-42.8742969°108km/h13789m6.4m/s-58.3°C5.5%161.6hPa0V00:00:0000:00:0000:00:00
PU1XMG-162026-09-01 00:12:39-22.81814-42.8759370°106km/h13758m6.8m/s-58.1°C5.6%162.3hPa0V00:00:0000:00:0000:00:00
PU1XMG-162026-09-01 00:12:33-22.81876-42.8775668°108km/h13727m3.4m/s-58.1°C5.9%163.2hPa0V00:00:0000:00:0000:00:00
PU1XMG-162026-09-01 00:12:28-22.81932-42.8789066°108km/h13702m6.4m/s-58.0°C6.1%163.8hPa0V00:00:0000:00:0000:00:00
PU1XMG-162026-09-01 00:12:23-22.82002-42.8804764°104km/h13672m3.6m/s-57.7°C6.0%164.6hPa0V00:00:0000:00:0000:00:00
PU1XMG-162026-09-01 00:12:18-22.82060-42.8817366°102km/h13647m5.4m/s-57.6°C5.9%165.2hPa0V00:00:0000:00:0000:00:00
PU1XMG-162026-09-01 00:12:13-22.82114-42.8830267°104km/h13622m4.5m/s-57.5°C5.9%165.9hPa0V00:00:0000:00:0000:00:00
PU1XMG-162026-09-01 00:12:06-22.82185-42.8845964°106km/h13592m4.5m/s-57.2°C6.0%166.7hPa0V00:00:0000:00:0000:00:00
PU1XMG-162026-09-01 00:12:01-22.82255-42.8861465°102km/h13561m5.8m/s-56.9°C6.0%167.6hPa0V00:00:0000:00:0000:00:00
PU1XMG-162026-09-01 00:11:56-22.82314-42.8873864°102km/h13535m4.9m/s-56.7°C6.0%168.2hPa0V00:00:0000:00:0000:00:00
PU1XMG-162026-09-01 00:11:51-22.82373-42.8886765°106km/h13509m6.5m/s-56.5°C6.2%168.9hPa0V00:00:0000:00:0000:00:00
PU1XMG-162026-09-01 00:11:44-22.82446-42.8901662°104km/h13480m4.5m/s-56.2°C6.3%169.7hPa0V00:00:0000:00:0000:00:00
PU1XMG-162026-09-01 00:11:38-22.82519-42.8916664°102km/h13447m4.9m/s-56.0°C6.7%170.6hPa0V00:00:0000:00:0000:00:00
PU1XMG-162026-09-01 00:11:34-22.82581-42.8929262°104km/h13420m5.5m/s-55.8°C7.2%171.2hPa0V00:00:0000:00:0000:00:00
PU1XMG-162026-09-01 00:11:28-22.82657-42.8944064°104km/h13390m2.9m/s-55.6°C7.9%172.1hPa0V00:00:0000:00:0000:00:00
PU1XMG-162026-09-01 00:11:20-22.82740-42.8962363°104km/h13355m6.6m/s-55.4°C8.9%173.1hPa0V00:00:0000:00:0000:00:00
PU1XMG-162026-09-01 00:11:15-22.82809-42.8974860°110km/h13327m6.1m/s-55.2°C10.0%173.8hPa0V00:00:0000:00:0000:00:00
PU1XMG-162026-09-01 00:11:05-22.82966-42.9004062°117km/h13260m6.3m/s-55.0°C14.0%175.6hPa0V00:00:0000:00:0000:00:00
PU1XMG-162026-09-01 00:10:55-22.83092-42.9028463°115km/h13216m5.1m/s-55.2°C10.9%176.8hPa0V00:00:0000:00:0000:00:00
PU1XMG-162026-09-01 00:10:49-22.83179-42.9046263°126km/h13178m8.4m/s-55.0°C8.0%177.9hPa0V00:00:0000:00:0000:00:00
PU1XMG-162026-09-01 00:10:44-22.83256-42.9061963°131km/h13152m5.4m/s-54.8°C6.8%178.7hPa0V00:00:0000:00:0000:00:00
PU1XMG-162026-09-01 00:10:40-22.83333-42.9077563°131km/h13125m5.4m/s-54.7°C6.2%179.4hPa0V00:00:0000:00:0000:00:00
PU1XMG-162026-09-01 00:10:35-22.83416-42.9093761°137km/h13098m6.3m/s-54.7°C6.0%180.1hPa0V00:00:0000:00:0000:00:00
PU1XMG-162026-09-01 00:10:28-22.83519-42.9113461°141km/h13070m5.5m/s-54.5°C6.2%180.9hPa0V00:00:0000:00:0000:00:00
PU1XMG-162026-09-01 00:10:22-22.83625-42.9133261°137km/h13041m3.6m/s-54.3°C6.4%181.7hPa0V00:00:0000:00:0000:00:00
PU1XMG-162026-09-01 00:10:17-22.83730-42.9152760°141km/h13012m4.4m/s-54.0°C6.8%182.5hPa0V00:00:0000:00:0000:00:00
PU1XMG-162026-09-01 00:10:12-22.83822-42.9169761°144km/h12985m6.0m/s-53.8°C7.4%183.2hPa0V00:00:0000:00:0000:00:00
PU1XMG-162026-09-01 00:10:06-22.83909-42.9186864°141km/h12961m4.7m/s-53.6°C8.2%184.0hPa0V00:00:0000:00:0000:00:00
PU1XMG-162026-09-01 00:10:00-22.84015-42.9207160°142km/h12932m6.4m/s-53.5°C9.4%184.8hPa0V00:00:0000:00:0000:00:00
PU1XMG-162026-09-01 00:09:55-22.84105-42.9223862°139km/h12909m5.1m/s-53.4°C11.9%185.5hPa0V00:00:0000:00:0000:00:00
PU1XMG-162026-09-01 00:09:49-22.84203-42.9244563°142km/h12883m5.2m/s-53.2°C16.9%186.3hPa0V00:00:0000:00:0000:00:00
PU1XMG-162026-09-01 00:09:41-22.84364-42.9270156°133km/h12842m5.8m/s-53.5°C17.8%187.4hPa0V00:00:0000:00:0000:00:00
PU1XMG-162026-09-01 00:09:37-22.84434-42.9284767°120km/h12798m11.4m/s-53.8°C10.5%188.7hPa0V00:00:0000:00:0000:00:00
PU1XMG-162026-09-01 00:09:30-22.84514-42.9304068°126km/h12760m4.9m/s-53.7°C10.3%189.8hPa0V00:00:0000:00:0000:00:00
PU1XMG-162026-09-01 00:09:24-22.84584-42.9322569°124km/h12731m5.4m/s-53.5°C9.8%190.7hPa0V00:00:0000:00:0000:00:00
PU1XMG-162026-09-01 00:09:18-22.84660-42.9341568°122km/h12703m4.5m/s-53.3°C9.0%191.5hPa0V00:00:0000:00:0000:00:00
PU1XMG-162026-09-01 00:09:14-22.84716-42.9356871°122km/h12678m6.0m/s-53.1°C9.0%192.3hPa0V00:00:0000:00:0000:00:00
PU1XMG-162026-09-01 00:09:08-22.84791-42.9376367°131km/h12648m6.0m/s-52.9°C9.0%193.2hPa0V00:00:0000:00:0000:00:00
PU1XMG-162026-09-01 00:09:02-22.84873-42.9395866°131km/h12616m3.8m/s-52.9°C9.1%194.2hPa0V00:00:0000:00:0000:00:00
PU1XMG-162026-09-01 00:08:57-22.84940-42.9412368°133km/h12590m6.8m/s-52.7°C9.0%195.0hPa0V00:00:0000:00:0000:00:00
PU1XMG-162026-09-01 00:08:51-22.85010-42.9429266°137km/h12562m5.1m/s-52.5°C9.3%195.8hPa0V00:00:0000:00:0000:00:00
PU1XMG-162026-09-01 00:08:46-22.85096-42.9449367°133km/h12533m5.8m/s-52.3°C9.1%196.6hPa0V00:00:0000:00:0000:00:00
PU1XMG-162026-09-01 00:08:40-22.85177-42.9469768°137km/h12501m5.3m/s-52.1°C9.1%197.6hPa0V00:00:0000:00:0000:00:00
PU1XMG-162026-09-01 00:08:33-22.85263-42.9489966°133km/h12471m4.3m/s-51.9°C9.3%198.5hPa0V00:00:0000:00:0000:00:00
PU1XMG-162026-09-01 00:08:27-22.85344-42.9510269°135km/h12441m5.8m/s-51.6°C9.5%199.4hPa0V00:00:0000:00:0000:00:00
PU1XMG-162026-09-01 00:08:23-22.85412-42.9527567°137km/h12415m4.3m/s-51.5°C9.9%200.1hPa0V00:00:0000:00:0000:00:00
PU1XMG-162026-09-01 00:08:17-22.85485-42.9544467°133km/h12392m5.1m/s-51.3°C10.8%200.8hPa0V00:00:0000:00:0000:00:00
PU1XMG-162026-09-01 00:08:12-22.85564-42.9564769°135km/h12366m8.4m/s-51.1°C12.3%201.7hPa0V00:00:0000:00:0000:00:00
PU1XMG-162026-09-01 00:08:07-22.85630-42.9581768°133km/h12342m6.2m/s-50.9°C14.7%202.5hPa0V00:00:0000:00:0000:00:00
PU1XMG-162026-09-01 00:08:00-22.85708-42.9601768°131km/h12311m6.4m/s-50.8°C20.0%203.4hPa0V00:00:0000:00:0000:00:00
PU1XMG-162026-09-01 00:07:56-22.85773-42.9618268°130km/h12288m4.5m/s-50.7°C25.1%204.1hPa0V00:00:0000:00:0000:00:00
PU1XMG-162026-09-01 00:07:51-22.85837-42.9634568°128km/h12264m5.5m/s-50.5°C30.1%204.8hPa0V00:00:0000:00:0000:00:00
PU1XMG-162026-09-01 00:07:44-22.85908-42.9653769°124km/h12235m3.8m/s-50.4°C35.4%205.8hPa0V00:00:0000:00:0000:00:00
PU1XMG-162026-09-01 00:07:39-22.85977-42.9672370°120km/h12204m5.1m/s-50.2°C38.3%206.8hPa0V00:00:0000:00:0000:00:00
PU1XMG-162026-09-01 00:07:34-22.86031-42.9687871°120km/h12177m6.5m/s-50.0°C39.8%207.6hPa0V00:00:0000:00:0000:00:00
PU1XMG-162026-09-01 00:07:28-22.86083-42.9703171°120km/h12151m5.5m/s-49.9°C41.5%208.4hPa0V00:00:0000:00:0000:00:00
PU1XMG-162026-09-01 00:07:23-22.86145-42.9721472°115km/h12123m6.2m/s-49.7°C44.1%209.3hPa0V00:00:0000:00:0000:00:00
PU1XMG-162026-09-01 00:07:16-22.86197-42.9739173°113km/h12092m5.9m/s-49.5°C46.8%210.3hPa0V00:00:0000:00:0000:00:00
PU1XMG-162026-09-01 00:07:11-22.86253-42.9756873°115km/h12065m4.3m/s-49.4°C47.6%211.2hPa0V00:00:0000:00:0000:00:00
PU1XMG-162026-09-01 00:07:05-22.86303-42.9774377°106km/h12034m6.8m/s-49.3°C52.2%212.2hPa0V00:00:0000:00:0000:00:00
PU1XMG-162026-09-01 00:07:00-22.86332-42.9788278°102km/h12008m3.8m/s-49.0°C51.8%213.0hPa0V00:00:0000:00:0000:00:00
PU1XMG-162026-09-01 00:06:55-22.86365-42.9801977°108km/h11981m6.7m/s-48.8°C50.7%213.9hPa0V00:00:0000:00:0000:00:00
PU1XMG-162026-09-01 00:06:48-22.86396-42.9819382°108km/h11949m5.8m/s-48.5°C51.6%214.9hPa0V00:00:0000:00:0000:00:00
PU1XMG-162026-09-01 00:06:44-22.86416-42.9833881°106km/h11925m3.7m/s-48.3°C52.5%215.8hPa0V00:00:0000:00:0000:00:00
PU1XMG-162026-09-01 00:06:37-22.86443-42.9851281°108km/h11894m4.8m/s-48.1°C54.0%216.7hPa0V00:00:0000:00:0000:00:00
PU1XMG-162026-09-01 00:06:31-22.86472-42.9868180°102km/h11863m5.4m/s-47.8°C56.0%217.8hPa0V00:00:0000:00:0000:00:00
PU1XMG-162026-09-01 00:06:25-22.86498-42.9885082°106km/h11834m3.0m/s-47.6°C57.9%218.8hPa0V00:00:0000:00:0000:00:00
PU1XMG-162026-09-01 00:06:21-22.86519-42.9899382°104km/h11809m4.4m/s-47.5°C58.0%219.6hPa0V00:00:0000:00:0000:00:00
PU1XMG-162026-09-01 00:06:15-22.86544-42.9916182°104km/h11781m3.5m/s-47.3°C58.9%220.5hPa0V00:00:0000:00:0000:00:00
PU1XMG-162026-09-01 00:06:08-22.86563-42.9933285°108km/h11749m4.8m/s-47.0°C57.8%221.6hPa0V00:00:0000:00:0000:00:00
PU1XMG-162026-09-01 00:06:04-22.86577-42.9947986°108km/h11720m6.3m/s-46.8°C58.3%222.4hPa0V00:00:0000:00:0000:00:00
PU1XMG-162026-09-01 00:05:59-22.86589-42.9962485°104km/h11694m5.1m/s-46.6°C59.4%223.4hPa0V00:00:0000:00:0000:00:00
PU1XMG-162026-09-01 00:05:52-22.86604-42.9979785°108km/h11663m4.9m/s-46.3°C60.3%224.4hPa0V00:00:0000:00:0000:00:00
PU1XMG-162026-09-01 00:05:47-22.86623-42.9997085°102km/h11632m6.9m/s-46.1°C60.7%225.4hPa0V00:00:0000:00:0000:00:00
PU1XMG-162026-09-01 00:05:42-22.86632-43.0011087°102km/h11606m3.9m/s-46.0°C62.4%226.3hPa0V00:00:0000:00:0000:00:00
PU1XMG-162026-09-01 00:05:37-22.86647-43.0028184°102km/h11578m4.6m/s-45.9°C64.6%227.4hPa0V00:00:0000:00:0000:00:00
PU1XMG-162026-09-01 00:05:31-22.86668-43.0042683°110km/h11550m4.2m/s-45.8°C64.7%228.2hPa0V00:00:0000:00:0000:00:00
PU1XMG-162026-09-01 00:05:25-22.86683-43.0060286°102km/h11524m6.4m/s-45.6°C66.9%229.2hPa0V00:00:0000:00:0000:00:00
PU1XMG-162026-09-01 00:05:21-22.86703-43.0074680°108km/h11499m5.5m/s-45.4°C64.1%230.0hPa0V00:00:0000:00:0000:00:00
PU1XMG-162026-09-01 00:05:14-22.86729-43.0091387°97km/h11462m7.5m/s-45.1°C64.5%231.3hPa0V00:00:0000:00:0000:00:00
PU1XMG-162026-09-01 00:05:08-22.86733-43.0105884°88km/h11431m5.4m/s-44.9°C67.9%232.4hPa0V00:00:0000:00:0000:00:00
PU1XMG-162026-09-01 00:04:58-22.86786-43.0131383°88km/h11371m9.2m/s-44.6°C65.0%234.4hPa0V00:00:0000:00:0000:00:00
PU1XMG-162026-09-01 00:04:53-22.86798-43.0145786°89km/h11338m6.3m/s-44.3°C66.2%235.6hPa0V00:00:0000:00:0000:00:00
PU1XMG-162026-09-01 00:04:48-22.86809-43.0160289°86km/h11311m5.1m/s-44.1°C68.9%236.6hPa0V00:00:0000:00:0000:00:00
PU1XMG-162026-09-01 00:04:41-22.86815-43.0172586°86km/h11286m6.3m/s-44.0°C67.4%237.5hPa0V00:00:0000:00:0000:00:00
PU1XMG-162026-09-01 00:04:36-22.86827-43.0183488°75km/h11259m5.8m/s-43.8°C69.1%238.5hPa0V00:00:0000:00:0000:00:00
PU1XMG-162026-09-01 00:04:31-22.86822-43.0197997°93km/h11222m7.5m/s-43.4°C68.5%239.7hPa0V00:00:0000:00:0000:00:00
PU1XMG-162026-09-01 00:04:23-22.86826-43.0212190°82km/h11173m7.0m/s-43.1°C69.8%241.4hPa0V00:00:0000:00:0000:00:00
PU1XMG-162026-09-01 00:04:18-22.86836-43.0224484°77km/h11140m5.6m/s-43.0°C67.9%242.6hPa0V00:00:0000:00:0000:00:00
PU1XMG-162026-09-01 00:04:11-22.86837-43.0238193°91km/h11105m6.8m/s-42.7°C66.9%243.8hPa0V00:00:0000:00:0000:00:00
PU1XMG-162026-09-01 00:04:05-22.86829-43.0252093°82km/h11074m3.9m/s-42.4°C68.0%245.0hPa0V00:00:0000:00:0000:00:00
PU1XMG-162026-09-01 00:04:00-22.86818-43.02634101°84km/h11045m8.1m/s-42.3°C68.0%246.0hPa0V00:00:0000:00:0000:00:00
PU1XMG-162026-09-01 00:03:55-22.86802-43.0276293°75km/h11011m7.8m/s-42.0°C68.6%247.3hPa0V00:00:0000:00:0000:00:00
PU1XMG-162026-09-01 00:03:51-22.86796-43.0286894°77km/h10981m7.0m/s-41.8°C68.9%248.4hPa0V00:00:0000:00:0000:00:00
PU1XMG-162026-09-01 00:03:48-22.86786-43.0298897°71km/h10947m7.4m/s-41.5°C68.5%249.7hPa0V00:00:0000:00:0000:00:00
PU1XMG-162026-09-01 00:03:43-22.86772-43.03112101°78km/h10912m7.7m/s-41.1°C67.8%250.8hPa0V00:00:0000:00:0000:00:00
PU1XMG-162026-09-01 00:03:41-22.86754-43.03230100°71km/h10880m4.4m/s-40.9°C69.0%252.1hPa0V00:00:0000:00:0000:00:00
PU1XMG-162026-09-01 00:03:38-22.86741-43.03332100°77km/h10855m5.3m/s-40.8°C68.7%253.0hPa0V00:00:0000:00:0000:00:00
PU1XMG-162026-09-01 00:03:35-22.86725-43.0345199°69km/h10822m6.1m/s-40.5°C67.9%254.3hPa0V00:00:0000:00:0000:00:00
PU1XMG-162026-09-01 00:03:33-22.86713-43.0354998°73km/h10798m6.0m/s-40.3°C67.8%255.2hPa0V00:00:0000:00:0000:00:00
PU1XMG-162026-09-01 00:03:28-22.86701-43.0366295°64km/h10766m5.9m/s-40.0°C68.5%256.4hPa0V00:00:0000:00:0000:00:00
PU1XMG-162026-09-01 00:03:24-22.86691-43.0377098°69km/h10733m4.6m/s-39.7°C68.4%257.6hPa0V00:00:0000:00:0000:00:00
PU1XMG-162026-09-01 00:03:18-22.86681-43.0386397°68km/h10709m6.6m/s-39.5°C68.2%258.5hPa0V00:00:0000:00:0000:00:00
PU1XMG-162026-09-01 00:03:14-22.86672-43.0395897°69km/h10681m3.8m/s-39.4°C68.7%259.5hPa0V00:00:0000:00:0000:00:00
PU1XMG-162026-09-01 00:03:09-22.86658-43.0406798°66km/h10652m3.2m/s-39.2°C69.4%260.6hPa0V00:00:0000:00:0000:00:00
PU1XMG-162026-09-01 00:03:00-22.86650-43.0416293°71km/h10628m5.8m/s-38.9°C69.3%261.5hPa0V00:00:0000:00:0000:00:00
PU1XMG-162026-09-01 00:02:48-22.86647-43.0427395°64km/h10595m6.5m/s-38.7°C69.2%262.7hPa0V00:00:0000:00:0000:00:00
PU1XMG-162026-09-01 00:02:45-22.86640-43.0436097°64km/h10569m5.0m/s-38.5°C68.9%263.8hPa0V00:00:0000:00:0000:00:00
PU1XMG-162026-09-01 00:02:34-22.86634-43.0446591°62km/h10538m4.2m/s-38.2°C69.1%264.9hPa0V00:00:0000:00:0000:00:00
PU1XMG-162026-09-01 00:02:27-22.86634-43.0455192°64km/h10514m5.9m/s-38.1°C69.3%265.9hPa0V00:00:0000:00:0000:00:00
PU1XMG-162026-09-01 00:02:17-22.86629-43.0465694°66km/h10483m4.9m/s-37.8°C70.0%267.1hPa0V00:00:0000:00:0000:00:00
PU1XMG-162026-09-01 00:02:13-22.86628-43.0474591°66km/h10459m4.3m/s-37.6°C69.8%268.0hPa0V00:00:0000:00:0000:00:00
PU1XMG-162026-09-01 00:02:04-22.86626-43.0485392°66km/h10429m4.9m/s-37.4°C70.1%269.2hPa0V00:00:0000:00:0000:00:00
PU1XMG-162026-09-01 00:01:58-22.86629-43.0526792°69km/h10318m4.8m/s-36.5°C71.1%273.6hPa0V00:00:0000:00:0000:00:00
PU1XMG-162026-09-01 00:01:48-22.86630-43.0536590°71km/h10292m6.4m/s-36.3°C70.1%274.5hPa0V00:00:0000:00:0000:00:00
PU1XMG-162026-09-01 00:01:40-22.86632-43.0548489°71km/h10262m6.2m/s-36.1°C70.4%275.8hPa0V00:00:0000:00:0000:00:00
PU1XMG-162026-09-01 00:01:34-22.86636-43.0559290°66km/h10233m3.9m/s-35.9°C70.7%276.9hPa0V00:00:0000:00:0000:00:00
PU1XMG-162026-09-01 00:01:26-22.86638-43.0568289°66km/h10207m4.8m/s-35.7°C70.4%277.9hPa0V00:00:0000:00:0000:00:00
PU1XMG-162026-09-01 00:01:20-22.86640-43.0577491°69km/h10184m5.7m/s-35.6°C71.8%278.9hPa0V00:00:0000:00:0000:00:00
PU1XMG-162026-09-01 00:01:12-22.86638-43.0588590°64km/h10156m4.6m/s-35.4°C73.1%280.0hPa0V00:00:0000:00:0000:00:00
PU1XMG-162026-09-01 00:01:05-22.86639-43.0597790°68km/h10129m5.3m/s-35.1°C73.0%281.0hPa0V00:00:0000:00:0000:00:00
PU1XMG-162026-09-01 00:00:58-22.86643-43.0621185°71km/h10065m4.5m/s-34.6°C72.5%283.5hPa0V00:00:0000:00:0000:00:00
PU1XMG-162026-09-01 00:00:51-22.86651-43.0630789°71km/h10043m4.3m/s-34.4°C73.4%284.5hPa0V00:00:0000:00:0000:00:00
PU1XMG-162026-09-01 00:00:43-22.86654-43.0640789°71km/h10018m5.1m/s-34.3°C73.5%285.6hPa0V00:00:0000:00:0000:00:00
PU1XMG-162026-09-01 00:00:37-22.86654-43.0652692°77km/h9990m7.4m/s-34.1°C73.3%286.7hPa0V00:00:0000:00:0000:00:00
PU1XMG-162026-09-01 00:00:32-22.86657-43.0662688°69km/h9962m5.9m/s-34.0°C74.0%287.7hPa0V00:00:0000:00:0000:00:00
PU1XMG-162026-09-01 00:00:28-22.86664-43.0675487°68km/h9925m5.1m/s-33.7°C75.5%289.2hPa0V00:00:0000:00:0000:00:00
PU1XMG-162026-08-31 23:59:38-22.86655-43.0755395°69km/h9676m7.9m/s-31.7°C76.8%299.8hPa0V00:00:0000:00:0000:00:00
PU1XMG-162026-08-31 23:59:30-22.86642-43.07708103°55km/h9631m6.0m/s-31.3°C76.7%301.7hPa0V00:00:0000:00:0000:00:00
PU1XMG-162026-08-31 23:59:25-22.86628-43.0778995°57km/h9595m9.4m/s-31.0°C75.7%303.2hPa0V00:00:0000:00:0000:00:00
PU1XMG-162026-08-31 23:59:19-22.86634-43.0787195°51km/h9558m5.8m/s-30.8°C78.1%304.9hPa0V00:00:0000:00:0000:00:00
PU1XMG-162026-08-31 23:59:13-22.86618-43.07967102°49km/h9517m8.3m/s-30.5°C77.3%306.6hPa0V00:00:0000:00:0000:00:00
PU1XMG-162026-08-31 23:59:08-22.86608-43.08051109°66km/h9478m9.0m/s-30.2°C77.0%308.2hPa0V00:00:0000:00:0000:00:00
PU1XMG-162026-08-31 23:59:02-22.86602-43.0816481°71km/h9442m6.0m/s-30.0°C77.4%309.7hPa0V00:00:0000:00:0000:00:00
PU1XMG-162026-08-31 23:58:54-22.86590-43.0828899°75km/h9391m6.7m/s-29.6°C77.3%312.0hPa0V00:00:0000:00:0000:00:00
PU1XMG-162026-08-31 23:58:49-22.86588-43.0839085°68km/h9359m5.7m/s-29.4°C77.4%313.4hPa0V00:00:0000:00:0000:00:00
PU1XMG-162026-08-31 23:58:43-22.86589-43.0848989°58km/h9317m4.7m/s-29.1°C77.0%315.2hPa0V00:00:0000:00:0000:00:00
PU1XMG-162026-08-31 23:58:37-22.86591-43.0858690°69km/h9283m4.2m/s-28.9°C77.1%316.8hPa0V00:00:0000:00:0000:00:00
PU1XMG-162026-08-31 23:58:32-22.86586-43.0868192°69km/h9252m8.0m/s-28.7°C77.5%318.1hPa0V00:00:0000:00:0000:00:00
PU1XMG-162026-08-31 23:58:27-22.86587-43.08772101°68km/h9221m4.2m/s-28.5°C78.6%319.6hPa0V00:00:0000:00:0000:00:00
PU1XMG-162026-08-31 23:58:21-22.86575-43.0889495°69km/h9176m8.8m/s-28.2°C79.1%321.6hPa0V00:00:0000:00:0000:00:00
PU1XMG-162026-08-31 23:58:16-22.86577-43.0898983°69km/h9137m5.7m/s-27.9°C78.6%323.3hPa0V00:00:0000:00:0000:00:00
PU1XMG-162026-08-31 23:58:10-22.86581-43.0910089°57km/h9100m8.0m/s-27.8°C81.0%325.1hPa0V00:00:0000:00:0000:00:00
PU1XMG-162026-08-31 23:58:03-22.86571-43.09200110°53km/h9059m8.9m/s-27.5°C80.1%326.9hPa0V00:00:0000:00:0000:00:00
PU1XMG-162026-08-31 23:57:58-22.86568-43.0926687°62km/h9025m7.1m/s-27.3°C79.3%328.4hPa0V00:00:0000:00:0000:00:00
PU1XMG-162026-08-31 23:57:52-22.86559-43.09370102°47km/h8986m7.8m/s-27.0°C78.8%330.1hPa0V00:00:0000:00:0000:00:00
PU1XMG-162026-08-31 23:57:47-22.86549-43.0942789°51km/h8950m6.3m/s-26.8°C79.4%331.7hPa0V00:00:0000:00:0000:00:00
PU1XMG-162026-08-31 23:57:42-22.86551-43.0950994°53km/h8914m5.8m/s-26.6°C79.6%333.2hPa0V00:00:0000:00:0000:00:00
PU1XMG-162026-08-31 23:57:37-22.86548-43.09601102°60km/h8880m7.0m/s-26.4°C80.1%335.0hPa0V00:00:0000:00:0000:00:00
PU1XMG-162026-08-31 23:57:30-22.86542-43.09668110°35km/h8840m8.5m/s-26.2°C81.5%336.8hPa0V00:00:0000:00:0000:00:00
PU1XMG-162026-08-31 23:57:25-22.86514-43.09718110°42km/h8810m7.7m/s-26.1°C82.9%338.2hPa0V00:00:0000:00:0000:00:00
PU1XMG-162026-08-31 23:57:19-22.86518-43.09788100°37km/h8770m6.1m/s-25.9°C85.3%340.2hPa0V00:00:0000:00:0000:00:00
PU1XMG-162026-08-31 23:57:14-22.86499-43.09846106°47km/h8737m6.6m/s-25.7°C88.1%341.8hPa0V00:00:0000:00:0000:00:00
PU1XMG-162026-08-31 23:57:08-22.86482-43.0992187°47km/h8697m7.5m/s-25.4°C87.2%343.6hPa0V00:00:0000:00:0000:00:00
PU1XMG-162026-08-31 23:57:03-22.86493-43.09964103°16km/h8665m5.7m/s-25.1°C86.9%345.1hPa0V00:00:0000:00:0000:00:00
PU1XMG-162026-08-31 23:56:57-22.86469-43.10003111°42km/h8633m7.0m/s-24.9°C85.7%346.6hPa0V00:00:0000:00:0000:00:00
PU1XMG-162026-08-31 23:56:52-22.86468-43.1005680°27km/h8602m7.7m/s-24.6°C85.4%348.0hPa0V00:00:0000:00:0000:00:00
PU1XMG-162026-08-31 23:56:46-22.86462-43.1010189°35km/h8563m7.2m/s-24.3°C85.7%349.9hPa0V00:00:0000:00:0000:00:00
PU1XMG-162026-08-31 23:56:41-22.86456-43.1015596°47km/h8520m7.2m/s-24.0°C86.2%352.0hPa0V00:00:0000:00:0000:00:00
PU1XMG-162026-08-31 23:56:35-22.86462-43.1021087°26km/h8490m7.2m/s-23.8°C85.7%353.4hPa0V00:00:0000:00:0000:00:00
PU1XMG-162026-08-31 23:56:29-22.86445-43.1026496°51km/h8454m7.8m/s-23.5°C85.1%355.0hPa0V00:00:0000:00:0000:00:00
PU1XMG-162026-08-31 23:56:24-22.86444-43.10327114°31km/h8413m7.8m/s-23.1°C85.9%356.9hPa0V00:00:0000:00:0000:00:00
PU1XMG-162026-08-31 23:56:18-22.86426-43.10375105°29km/h8381m7.0m/s-22.8°C86.6%358.5hPa0V00:00:0000:00:0000:00:00
PU1XMG-162026-08-31 23:56:13-22.86423-43.10410109°37km/h8351m5.8m/s-22.6°C86.1%360.1hPa0V00:00:0000:00:0000:00:00
PU1XMG-162026-08-31 23:56:07-22.86412-43.1045681°22km/h8314m9.0m/s-22.3°C82.7%362.0hPa0V00:00:0000:00:0000:00:00
PU1XMG-162026-08-31 23:56:01-22.86423-43.1050574°27km/h8275m9.8m/s-22.0°C81.1%363.9hPa0V00:00:0000:00:0000:00:00
PU1XMG-162026-08-31 23:55:55-22.86403-43.10553103°44km/h8238m4.5m/s-21.8°C83.2%365.9hPa0V00:00:0000:00:0000:00:00
PU1XMG-162026-08-31 23:55:49-22.86412-43.1061676°20km/h8200m8.7m/s-21.5°C83.4%367.6hPa0V00:00:0000:00:0000:00:00
PU1XMG-162026-08-31 23:55:44-22.86398-43.10656101°46km/h8169m7.1m/s-21.3°C85.1%369.2hPa0V00:00:0000:00:0000:00:00
PU1XMG-162026-08-31 23:55:38-22.86412-43.1072083°29km/h8133m6.2m/s-21.1°C86.5%370.8hPa0V00:00:0000:00:0000:00:00
PU1XMG-162026-08-31 23:55:33-22.86402-43.10764100°33km/h8106m6.7m/s-21.0°C87.3%372.3hPa0V00:00:0000:00:0000:00:00
PU1XMG-162026-08-31 23:55:28-22.86425-43.1081448°31km/h8063m7.2m/s-20.8°C87.3%374.2hPa0V00:00:0000:00:0000:00:00
PU1XMG-162026-08-31 23:55:23-22.86437-43.10845104°27km/h8035m6.3m/s-20.6°C87.4%375.6hPa0V00:00:0000:00:0000:00:00
PU1XMG-162026-08-31 23:55:16-22.86429-43.1090676°47km/h8002m5.9m/s-20.4°C89.0%377.5hPa0V00:00:0000:00:0000:00:00
PU1XMG-162026-08-31 23:55:11-22.86444-43.1096890°40km/h7970m5.8m/s-20.3°C91.2%379.1hPa0V00:00:0000:00:0000:00:00
PU1XMG-162026-08-31 23:55:06-22.86458-43.1104572°60km/h7929m9.7m/s-20.1°C89.8%381.1hPa0V00:00:0000:00:0000:00:00
PU1XMG-162026-08-31 23:54:59-22.86490-43.1112380°51km/h7889m7.2m/s-19.9°C89.9%383.3hPa0V00:00:0000:00:0000:00:00
PU1XMG-162026-08-31 23:54:54-22.86496-43.1118382°42km/h7855m6.7m/s-19.7°C88.1%385.0hPa0V00:00:0000:00:0000:00:00
PU1XMG-162026-08-31 23:54:50-22.86499-43.1125183°49km/h7821m9.1m/s-19.5°C87.4%386.8hPa0V00:00:0000:00:0000:00:00
PU1XMG-162026-08-31 23:54:43-22.86512-43.1133079°37km/h7779m9.1m/s-19.2°C86.4%389.0hPa0V00:00:0000:00:0000:00:00
PU1XMG-162026-08-31 23:54:39-22.86516-43.11379105°47km/h7750m8.1m/s-19.1°C86.5%390.6hPa0V00:00:0000:00:0000:00:00
PU1XMG-162026-08-31 23:54:33-22.86511-43.1148679°68km/h7713m7.5m/s-18.8°C85.4%392.6hPa0V00:00:0000:00:0000:00:00
PU1XMG-162026-08-31 23:54:28-22.86534-43.1156071°49km/h7679m7.3m/s-18.5°C84.3%394.1hPa0V00:00:0000:00:0000:00:00
PU1XMG-162026-08-31 23:54:22-22.86540-43.1164098°64km/h7641m5.2m/s-18.2°C83.7%396.2hPa0V00:00:0000:00:0000:00:00
PU1XMG-162026-08-31 23:54:17-22.86547-43.1173678°64km/h7604m9.5m/s-17.8°C81.9%398.1hPa0V00:00:0000:00:0000:00:00
PU1XMG-162026-08-31 23:54:12-22.86564-43.1180878°58km/h7571m7.4m/s-17.6°C81.6%399.7hPa0V00:00:0000:00:0000:00:00
PU1XMG-162026-08-31 23:54:05-22.86559-43.11922100°60km/h7534m5.3m/s-17.4°C80.7%401.9hPa0V00:00:0000:00:0000:00:00
PU1XMG-162026-08-31 23:54:01-22.86565-43.1200378°73km/h7508m5.5m/s-17.3°C80.0%403.3hPa0V00:00:0000:00:0000:00:00
PU1XMG-162026-08-31 23:53:56-22.86579-43.1211491°77km/h7483m6.8m/s-17.0°C80.2%404.8hPa0V00:00:0000:00:0000:00:00
PU1XMG-162026-08-31 23:53:49-22.86574-43.12223103°77km/h7437m6.8m/s-16.7°C77.8%407.1hPa0V00:00:0000:00:0000:00:00
PU1XMG-162026-08-31 23:53:45-22.86560-43.1234188°82km/h7404m7.1m/s-16.4°C76.4%408.9hPa0V00:00:0000:00:0000:00:00
PU1XMG-162026-08-31 23:53:40-22.86577-43.1244580°78km/h7371m6.5m/s-16.2°C74.2%410.6hPa0V00:00:0000:00:0000:00:00
PU1XMG-162026-08-31 23:53:35-22.86584-43.1255993°78km/h7343m6.0m/s-16.0°C73.7%412.4hPa0V00:00:0000:00:0000:00:00
PU1XMG-162026-08-31 23:53:29-22.86593-43.1269086°95km/h7309m5.9m/s-16.0°C70.6%414.3hPa0V00:00:0000:00:0000:00:00
PU1XMG-162026-08-31 23:53:23-22.86585-43.12820105°84km/h7282m6.2m/s-15.8°C69.6%415.6hPa0V00:00:0000:00:0000:00:00
PU1XMG-162026-08-31 23:53:18-22.86565-43.1291297°66km/h7251m4.0m/s-15.7°C67.1%417.2hPa0V00:00:0000:00:0000:00:00
PU1XMG-162026-08-31 23:53:12-22.86556-43.13036100°77km/h7221m8.7m/s-15.3°C65.3%418.9hPa0V00:00:0000:00:0000:00:00
PU1XMG-162026-08-31 23:53:08-22.86545-43.13140100°89km/h7194m5.0m/s-15.0°C65.1%420.5hPa0V00:00:0000:00:0000:00:00
PU1XMG-162026-08-31 23:53:02-22.86515-43.13251104°71km/h7158m6.4m/s-15.1°C60.7%422.2hPa0V00:00:0000:00:0000:00:00
PU1XMG-162026-08-31 23:52:56-22.86502-43.13378101°82km/h7120m8.4m/s-15.2°C56.1%424.2hPa0V00:00:0000:00:0000:00:00
PU1XMG-162026-08-31 23:52:50-22.86473-43.13514113°82km/h7083m2.9m/s-15.4°C49.7%426.5hPa0V00:00:0000:00:0000:00:00
PU1XMG-162026-08-31 23:52:44-22.86406-43.13651118°102km/h7055m6.2m/s-15.4°C40.2%428.4hPa0V00:00:0000:00:0000:00:00
PU1XMG-162026-08-31 23:52:40-22.86355-43.13782108°99km/h7031m6.0m/s-15.4°C32.6%429.8hPa0V00:00:0000:00:0000:00:00
PU1XMG-162026-08-31 23:52:33-22.86324-43.13923114°77km/h6999m6.2m/s-15.2°C33.1%431.3hPa0V00:00:0000:00:0000:00:00
PU1XMG-162026-08-31 23:52:28-22.86258-43.14042118°99km/h6967m4.8m/s-14.9°C28.8%433.1hPa0V00:00:0000:00:0000:00:00
PU1XMG-162026-08-31 23:52:23-22.86209-43.14163113°88km/h6937m7.2m/s-14.6°C27.3%434.7hPa0V00:00:0000:00:0000:00:00
PU1XMG-162026-08-31 23:52:18-22.86173-43.14270114°89km/h6907m5.6m/s-14.3°C28.7%436.5hPa0V00:00:0000:00:0000:00:00
PU1XMG-162026-08-31 23:52:12-22.86127-43.14397106°91km/h6869m7.6m/s-14.0°C26.2%438.7hPa0V00:00:0000:00:0000:00:00
PU1XMG-162026-08-31 23:52:06-22.86071-43.14534117°75km/h6835m6.2m/s-13.6°C26.2%440.7hPa0V00:00:0000:00:0000:00:00
PU1XMG-162026-08-31 23:52:00-22.86045-43.14638106°93km/h6814m5.9m/s-13.4°C24.6%441.9hPa0V00:00:0000:00:0000:00:00
PU1XMG-162026-08-31 23:51:56-22.85994-43.14752125°84km/h6788m5.9m/s-13.2°C23.0%443.4hPa0V00:00:0000:00:0000:00:00
PU1XMG-162026-08-31 23:51:50-22.85942-43.14865105°89km/h6756m5.9m/s-12.9°C21.2%445.3hPa0V00:00:0000:00:0000:00:00
PU1XMG-162026-08-31 23:51:44-22.85918-43.14993109°71km/h6718m5.1m/s-12.6°C22.9%447.6hPa0V00:00:0000:00:0000:00:00
PU1XMG-162026-08-31 23:51:39-22.85886-43.1511199°100km/h6688m4.5m/s-12.3°C20.7%449.2hPa0V00:00:0000:00:0000:00:00
PU1XMG-162026-08-31 23:51:33-22.85877-43.15251100°71km/h6662m4.9m/s-12.1°C20.0%450.6hPa0V00:00:0000:00:0000:00:00
PU1XMG-162026-08-31 23:51:26-22.85828-43.15372117°95km/h6633m4.1m/s-11.7°C20.1%452.4hPa0V00:00:0000:00:0000:00:00
PU1XMG-162026-08-31 23:51:21-22.85786-43.15485112°75km/h6613m6.2m/s-11.5°C19.4%453.6hPa0V00:00:0000:00:0000:00:00
PU1XMG-162026-08-31 23:51:16-22.85730-43.15603115°93km/h6579m5.6m/s-11.2°C18.6%455.6hPa0V00:00:0000:00:0000:00:00
PU1XMG-162026-08-31 23:51:10-22.85687-43.15714115°77km/h6551m6.9m/s-11.1°C18.8%457.3hPa0V00:00:0000:00:0000:00:00
PU1XMG-162026-08-31 23:51:05-22.85653-43.15830108°80km/h6513m5.9m/s-10.7°C18.3%459.5hPa0V00:00:0000:00:0000:00:00
PU1XMG-162026-08-31 23:51:00-22.85631-43.1593197°80km/h6478m4.0m/s-10.3°C18.0%461.5hPa0V00:00:0000:00:0000:00:00
PU1XMG-162026-08-31 23:50:54-22.85606-43.16040111°75km/h6451m5.5m/s-10.1°C17.8%463.3hPa0V00:00:0000:00:0000:00:00
PU1XMG-162026-08-31 23:50:49-22.85573-43.16159113°80km/h6411m6.3m/s-9.8°C18.3%465.7hPa0V00:00:0000:00:0000:00:00
PU1XMG-162026-08-31 23:50:43-22.85547-43.1627093°77km/h6373m6.5m/s-9.4°C18.3%468.1hPa0V00:00:0000:00:0000:00:00
PU1XMG-162026-08-31 23:50:38-22.85538-43.16408101°78km/h6337m5.8m/s-9.4°C21.1%470.2hPa0V00:00:0000:00:0000:00:00
PU1XMG-162026-08-31 23:50:37-22.85503-43.16526112°78km/h6294m8.1m/s-9.2°C19.0%472.7hPa0V00:00:0000:00:0000:00:00
PU1XMG-162026-08-31 23:50:34-22.85469-43.16650106°78km/h6257m5.9m/s-8.9°C16.1%475.1hPa0V00:00:0000:00:0000:00:00
PU1XMG-162026-08-31 23:50:20-22.85445-43.16749105°77km/h6233m6.2m/s-8.7°C16.8%476.6hPa0V00:00:0000:00:0000:00:00
PU1XMG-162026-08-31 23:50:14-22.85423-43.16886104°86km/h6198m5.7m/s-8.7°C13.4%478.7hPa0V00:00:0000:00:0000:00:00
PU1XMG-162026-08-31 23:50:07-22.85395-43.1701296°68km/h6173m7.1m/s-8.9°C15.6%480.4hPa0V00:00:0000:00:0000:00:00
PU1XMG-162026-08-31 23:50:02-22.85388-43.17101100°75km/h6140m5.8m/s-8.8°C13.9%482.5hPa0V00:00:0000:00:0000:00:00
PU1XMG-162026-08-31 23:49:57-22.85382-43.1724592°95km/h6105m7.6m/s-8.5°C12.7%484.7hPa0V00:00:0000:00:0000:00:00
PU1XMG-162026-08-31 23:49:51-22.85381-43.1736088°75km/h6076m7.4m/s-8.2°C12.6%486.5hPa0V00:00:0000:00:0000:00:00
PU1XMG-162026-08-31 23:49:45-22.85386-43.17478101°69km/h6031m5.8m/s-7.9°C12.3%489.1hPa0V00:00:0000:00:0000:00:00
PU1XMG-162026-08-31 23:49:40-22.85375-43.1756885°64km/h6003m4.6m/s-7.7°C11.6%490.8hPa0V00:00:0000:00:0000:00:00
PU1XMG-162026-08-31 23:49:34-22.85379-43.1769696°82km/h5972m4.5m/s-7.8°C12.8%492.8hPa0V00:00:0000:00:0000:00:00
PU1XMG-162026-08-31 23:49:29-22.85376-43.1780494°82km/h5944m9.3m/s-7.9°C13.3%494.7hPa0V00:00:0000:00:0000:00:00
PU1XMG-162026-08-31 23:49:23-22.85361-43.1792491°68km/h5908m4.5m/s-7.8°C14.5%497.0hPa0V00:00:0000:00:0000:00:00
PU1XMG-162026-08-31 23:49:19-22.85356-43.1802498°77km/h5888m4.8m/s-7.7°C15.7%498.5hPa0V00:00:0000:00:0000:00:00
PU1XMG-162026-08-31 23:49:13-22.85338-43.18140100°62km/h5863m6.9m/s-7.6°C18.0%500.0hPa0V00:00:0000:00:0000:00:00
PU1XMG-162026-08-31 23:49:08-22.85319-43.1822599°64km/h5828m3.4m/s-7.3°C18.1%502.3hPa0V00:00:0000:00:0000:00:00
PU1XMG-162026-08-31 23:49:01-22.85305-43.18336107°66km/h5797m5.2m/s-7.1°C18.3%504.0hPa0V00:00:0000:00:0000:00:00
PU1XMG-162026-08-31 23:48:55-22.85288-43.1843899°68km/h5762m4.6m/s-6.8°C18.3%506.3hPa0V00:00:0000:00:0000:00:00
PU1XMG-162026-08-31 23:48:51-22.85273-43.18524106°58km/h5743m4.3m/s-6.7°C18.4%507.6hPa0V00:00:0000:00:0000:00:00
PU1XMG-162026-08-31 23:48:45-22.85260-43.1861991°55km/h5718m4.3m/s-6.4°C18.3%509.2hPa0V00:00:0000:00:0000:00:00
PU1XMG-162026-08-31 23:48:40-22.85256-43.18695100°55km/h5697m5.6m/s-6.2°C18.8%510.5hPa0V00:00:0000:00:0000:00:00
PU1XMG-162026-08-31 23:48:34-22.85242-43.18772102°62km/h5673m5.3m/s-6.0°C19.6%512.2hPa0V00:00:0000:00:0000:00:00
PU1XMG-162026-08-31 23:48:29-22.85226-43.18856103°58km/h5651m4.1m/s-5.9°C20.3%513.6hPa0V00:00:0000:00:0000:00:00
PU1XMG-162026-08-31 23:48:23-22.85213-43.1894494°53km/h5626m4.0m/s-5.7°C21.7%515.2hPa0V00:00:0000:00:0000:00:00
PU1XMG-162026-08-31 23:48:18-22.85205-43.19045102°66km/h5602m2.7m/s-6.2°C37.5%516.9hPa0V00:00:0000:00:0000:00:00
PU1XMG-162026-08-31 23:48:12-22.85190-43.1915894°68km/h5576m5.1m/s-6.7°C56.1%518.4hPa0V00:00:0000:00:0000:00:00
PU1XMG-162026-08-31 23:48:06-22.85181-43.19245106°57km/h5553m5.6m/s-6.7°C60.8%520.2hPa0V00:00:0000:00:0000:00:00
PU1XMG-162026-08-31 23:48:00-22.85164-43.19329100°64km/h5521m6.5m/s-7.0°C75.6%522.2hPa0V00:00:0000:00:0000:00:00
PU1XMG-162026-08-31 23:47:55-22.85136-43.19414122°62km/h5490m8.2m/s-7.0°C83.2%524.3hPa0V00:00:0000:00:0000:00:00
PU1XMG-162026-08-31 23:47:49-22.85081-43.19501114°68km/h5454m5.4m/s-6.7°C82.2%526.8hPa0V00:00:0000:00:0000:00:00
PU1XMG-162026-08-31 23:47:44-22.85058-43.19584111°55km/h5427m7.1m/s-6.5°C82.0%528.5hPa0V00:00:0000:00:0000:00:00
PU1XMG-162026-08-31 23:47:40-22.85018-43.19645131°58km/h5397m5.7m/s-6.3°C82.1%530.5hPa0V00:00:0000:00:0000:00:00
PU1XMG-162026-08-31 23:47:35-22.84980-43.19711119°58km/h5367m8.2m/s-6.0°C81.7%532.4hPa0V00:00:0000:00:0000:00:00
PU1XMG-162026-08-31 23:47:22-22.84925-43.19877122°60km/h5296m4.4m/s-5.8°C88.8%537.3hPa0V00:00:0000:00:0000:00:00
PU1XMG-162026-08-31 23:47:17-22.84879-43.19945122°62km/h5265m5.7m/s-5.5°C87.6%539.4hPa0V00:00:0000:00:0000:00:00
PU1XMG-162026-08-31 23:47:13-22.84852-43.20012119°46km/h5238m7.0m/s-5.6°C94.0%541.3hPa0V00:00:0000:00:0000:00:00
PU1XMG-162026-08-31 23:47:06-22.84813-43.20089104°51km/h5201m7.3m/s-5.3°C94.4%543.9hPa0V00:00:0000:00:0000:00:00
PU1XMG-162026-08-31 23:47:00-22.84793-43.20160122°46km/h5168m4.8m/s-5.1°C95.0%546.0hPa0V00:00:0000:00:0000:00:00
PU1XMG-162026-08-31 23:46:55-22.84768-43.20203109°40km/h5141m3.9m/s-4.8°C93.0%548.1hPa0V00:00:0000:00:0000:00:00
PU1XMG-162026-08-31 23:46:51-22.84741-43.20263128°51km/h5112m6.4m/s-4.5°C91.3%550.1hPa0V00:00:0000:00:0000:00:00
PU1XMG-162026-08-31 23:46:45-22.84712-43.20317117°51km/h5086m5.4m/s-4.3°C90.7%552.1hPa0V00:00:0000:00:0000:00:00
PU1XMG-162026-08-31 23:46:39-22.84673-43.20377110°37km/h5047m5.9m/s-3.9°C87.9%554.5hPa0V00:00:0000:00:0000:00:00
PU1XMG-162026-08-31 23:46:34-22.84651-43.20440123°53km/h5020m6.7m/s-3.6°C86.4%556.4hPa0V00:00:0000:00:0000:00:00
PU1XMG-162026-08-31 23:46:29-22.84617-43.20501112°40km/h4984m5.9m/s-3.3°C85.1%559.0hPa0V00:00:0000:00:0000:00:00
PU1XMG-162026-08-31 23:46:23-22.84582-43.20582114°57km/h4954m2.4m/s-3.2°C87.3%561.1hPa0V00:00:0000:00:0000:00:00
PU1XMG-162026-08-31 23:46:16-22.84547-43.20650128°47km/h4926m3.7m/s-3.0°C85.2%563.0hPa0V00:00:0000:00:0000:00:00
PU1XMG-162026-08-31 23:46:11-22.84521-43.20704112°42km/h4904m6.9m/s-2.9°C79.2%564.7hPa0V00:00:0000:00:0000:00:00
PU1XMG-162026-08-31 23:46:06-22.84492-43.20786109°60km/h4867m8.5m/s-2.7°C81.8%567.4hPa0V00:00:0000:00:0000:00:00
PU1XMG-162026-08-31 23:46:00-22.84468-43.20842112°37km/h4840m5.5m/s-2.5°C81.3%569.5hPa0V00:00:0000:00:0000:00:00
PU1XMG-162026-08-31 23:45:54-22.84451-43.2090799°44km/h4806m5.1m/s-2.3°C83.7%571.7hPa0V00:00:0000:00:0000:00:00
PU1XMG-162026-08-31 23:45:49-22.84438-43.20977101°58km/h4782m5.5m/s-2.1°C84.3%573.4hPa0V00:00:0000:00:0000:00:00
PU1XMG-162026-08-31 23:45:44-22.84411-43.21060123°49km/h4752m5.8m/s-1.9°C84.8%575.3hPa0V00:00:0000:00:0000:00:00
PU1XMG-162026-08-31 23:45:38-22.84384-43.2114099°57km/h4727m3.8m/s-1.7°C84.9%577.4hPa0V00:00:0000:00:0000:00:00
PU1XMG-162026-08-31 23:45:31-22.84371-43.21215120°44km/h4701m6.4m/s-1.6°C88.7%579.2hPa0V00:00:0000:00:0000:00:00
PU1XMG-162026-08-31 23:45:26-22.84335-43.21275123°55km/h4673m5.9m/s-1.4°C89.1%581.2hPa0V00:00:0000:00:0000:00:00
PU1XMG-162026-08-31 23:45:20-22.84302-43.21354112°47km/h4643m7.4m/s-1.2°C91.4%583.7hPa0V00:00:0000:00:0000:00:00
PU1XMG-162026-08-31 23:45:17-22.84289-43.2140394°35km/h4615m5.0m/s-1.1°C91.5%585.3hPa0V00:00:0000:00:0000:00:00
PU1XMG-162026-08-31 23:45:10-22.84269-43.21479123°53km/h4586m5.7m/s-0.9°C91.8%587.3hPa0V00:00:0000:00:0000:00:00
PU1XMG-162026-08-31 23:45:04-22.84247-43.21529103°35km/h4554m6.6m/s-0.6°C91.6%589.6hPa0V00:00:0000:00:0000:00:00
PU1XMG-162026-08-31 23:44:59-22.84238-43.2158493°46km/h4528m5.8m/s-0.4°C91.8%591.6hPa0V00:00:0000:00:0000:00:00
PU1XMG-162026-08-31 23:44:48-22.84221-43.21717100°40km/h4468m2.3m/s0.1°C90.5%596.1hPa0V00:00:0000:00:0000:00:00
PU1XMG-162026-08-31 23:44:44-22.84203-43.21766119°40km/h4449m4.8m/s0.3°C89.7%597.8hPa0V00:00:0000:00:0000:00:00
PU1XMG-162026-08-31 23:44:37-22.84193-43.2182697°49km/h4421m5.9m/s0.6°C88.6%599.9hPa0V00:00:0000:00:0000:00:00
PU1XMG-162026-08-31 23:44:32-22.84182-43.21885111°35km/h4387m8.2m/s0.9°C87.1%602.4hPa0V00:00:0000:00:0000:00:00
PU1XMG-162026-08-31 23:44:26-22.84167-43.2194898°49km/h4357m4.2m/s1.2°C86.3%604.8hPa0V00:00:0000:00:0000:00:00
PU1XMG-162026-08-31 23:44:21-22.84162-43.22031100°42km/h4334m4.8m/s1.2°C88.9%606.4hPa0V00:00:0000:00:0000:00:00
PU1XMG-162026-08-31 23:44:15-22.84142-43.22084113°51km/h4307m7.5m/s1.5°C87.9%608.4hPa0V00:00:0000:00:0000:00:00
PU1XMG-162026-08-31 23:44:10-22.84126-43.22164108°46km/h4259m7.9m/s1.7°C92.0%611.8hPa0V00:00:0000:00:0000:00:00
PU1XMG-162026-08-31 23:44:04-22.84115-43.2222296°33km/h4226m6.9m/s1.9°C91.0%614.1hPa0V00:00:0000:00:0000:00:00
PU1XMG-162026-08-31 23:43:59-22.84085-43.22281119°53km/h4192m6.2m/s2.1°C93.6%617.1hPa0V00:00:0000:00:0000:00:00
PU1XMG-162026-08-31 23:43:48-22.84063-43.2239290°44km/h4125m5.8m/s2.7°C91.7%622.0hPa0V00:00:0000:00:0000:00:00
PU1XMG-162026-08-31 23:43:42-22.84044-43.22464119°35km/h4091m7.1m/s3.0°C90.0%624.6hPa0V00:00:0000:00:0000:00:00
PU1XMG-162026-08-31 23:43:38-22.84030-43.22507110°42km/h4056m4.1m/s3.4°C88.0%627.3hPa0V00:00:0000:00:0000:00:00
PU1XMG-162026-08-31 23:43:32-22.84012-43.22573107°38km/h4014m7.6m/s3.6°C90.3%630.5hPa0V00:00:0000:00:0000:00:00
PU1XMG-162026-08-31 23:43:26-22.83992-43.22622109°46km/h3983m5.4m/s3.8°C89.9%633.1hPa0V00:00:0000:00:0000:00:00
PU1XMG-162026-08-31 23:43:11-22.83952-43.22792110°44km/h3872m8.4m/s4.6°C88.4%641.6hPa0V00:00:0000:00:0000:00:00
PU1XMG-162026-08-31 23:43:05-22.83947-43.2284085°31km/h3838m5.9m/s4.8°C89.8%644.1hPa0V00:00:0000:00:0000:00:00
PU1XMG-162026-08-31 23:42:59-22.83948-43.22901102°47km/h3811m4.3m/s5.0°C90.6%646.5hPa0V00:00:0000:00:0000:00:00
PU1XMG-162026-08-31 23:42:53-22.83927-43.22968114°42km/h3773m8.9m/s5.4°C88.8%649.4hPa0V00:00:0000:00:0000:00:00
PU1XMG-162026-08-31 23:42:48-22.83904-43.23029118°42km/h3733m7.1m/s5.7°C87.8%652.8hPa0V00:00:0000:00:0000:00:00
PU1XMG-162026-08-31 23:42:42-22.83882-43.23076122°40km/h3700m7.0m/s6.0°C87.1%655.4hPa0V00:00:0000:00:0000:00:00
PU1XMG-162026-08-31 23:42:37-22.83862-43.23123112°46km/h3669m8.1m/s6.2°C87.5%657.8hPa0V00:00:0000:00:0000:00:00
PU1XMG-162026-08-31 23:42:31-22.83835-43.23182105°38km/h3631m6.3m/s6.5°C86.3%660.7hPa0V00:00:0000:00:0000:00:00
PU1XMG-162026-08-31 23:42:27-22.83819-43.23238105°42km/h3603m8.7m/s6.7°C85.0%663.1hPa0V00:00:0000:00:0000:00:00
PU1XMG-162026-08-31 23:42:21-22.83793-43.23289125°38km/h3566m7.1m/s7.0°C83.8%666.1hPa0V00:00:0000:00:0000:00:00
PU1XMG-162026-08-31 23:42:15-22.83766-43.23355114°44km/h3525m7.6m/s7.4°C82.5%669.2hPa0V00:00:0000:00:0000:00:00
PU1XMG-162026-08-31 23:42:10-22.83744-43.23408111°44km/h3491m7.8m/s7.7°C81.3%672.0hPa0V00:00:0000:00:0000:00:00
PU1XMG-162026-08-31 23:42:06-22.83725-43.23464103°42km/h3459m6.2m/s8.0°C80.2%674.6hPa0V00:00:0000:00:0000:00:00
PU1XMG-162026-08-31 23:42:01-22.83706-43.23536112°58km/h3429m9.0m/s8.2°C78.2%677.2hPa0V00:00:0000:00:0000:00:00
PU1XMG-162026-08-31 23:41:55-22.83679-43.23599113°46km/h3396m5.7m/s8.4°C78.5%679.7hPa0V00:00:0000:00:0000:00:00
PU1XMG-162026-08-31 23:41:50-22.83648-43.23667119°47km/h3358m5.1m/s8.4°C82.6%683.0hPa0V00:00:0000:00:0000:00:00
PU1XMG-162026-08-31 23:41:44-22.83616-43.23722118°49km/h3325m8.8m/s8.7°C81.2%685.6hPa0V00:00:0000:00:0000:00:00
PU1XMG-162026-08-31 23:41:39-22.83590-43.23778117°40km/h3290m8.3m/s9.0°C80.2%688.3hPa0V00:00:0000:00:0000:00:00
PU1XMG-162026-08-31 23:41:33-22.83558-43.23841115°51km/h3246m5.9m/s9.4°C78.4%691.8hPa0V00:00:0000:00:0000:00:00
PU1XMG-162026-08-31 23:41:28-22.83530-43.23899116°44km/h3217m6.5m/s9.7°C77.2%694.2hPa0V00:00:0000:00:0000:00:00
PU1XMG-162026-08-31 23:41:23-22.83504-43.23949121°38km/h3183m9.2m/s10.0°C75.8%697.3hPa0V00:00:0000:00:0000:00:00
PU1XMG-162026-08-31 23:41:17-22.83477-43.23990115°26km/h3141m5.5m/s10.3°C73.9%700.5hPa0V00:00:0000:00:0000:00:00
PU1XMG-162026-08-31 23:41:12-22.83455-43.24032126°40km/h3111m9.2m/s10.6°C72.7%703.1hPa0V00:00:0000:00:0000:00:00
PU1XMG-162026-08-31 23:41:06-22.83419-43.24077136°35km/h3069m5.5m/s11.0°C71.3%706.8hPa0V00:00:0000:00:0000:00:00
PU1XMG-162026-08-31 23:41:00-22.83384-43.24127128°42km/h3033m5.3m/s11.3°C70.4%710.0hPa0V00:00:0000:00:0000:00:00
PU1XMG-162026-08-31 23:40:55-22.83342-43.24183132°46km/h2998m8.4m/s11.6°C69.4%713.2hPa0V00:00:0000:00:0000:00:00
PU1XMG-162026-08-31 23:40:50-22.83304-43.24230128°46km/h2964m5.9m/s11.9°C69.3%716.1hPa0V00:00:0000:00:0000:00:00
PU1XMG-162026-08-31 23:40:43-22.83257-43.24286135°46km/h2924m5.9m/s12.2°C68.4%719.2hPa0V00:00:0000:00:0000:00:00
PU1XMG-162026-08-31 23:40:38-22.83218-43.24329132°38km/h2890m7.2m/s12.3°C69.0%722.1hPa0V00:00:0000:00:0000:00:00
PU1XMG-162026-08-31 23:40:32-22.83181-43.24382133°47km/h2851m5.7m/s12.5°C67.5%725.4hPa0V00:00:0000:00:0000:00:00
PU1XMG-162026-08-31 23:40:27-22.83140-43.24429131°44km/h2815m7.3m/s12.8°C66.7%728.5hPa0V00:00:0000:00:0000:00:00
PU1XMG-162026-08-31 23:40:21-22.83091-43.24479143°46km/h2777m7.4m/s13.1°C66.2%731.6hPa0V00:00:0000:00:0000:00:00
PU1XMG-162026-08-31 23:40:15-22.83031-43.24528141°53km/h2737m5.0m/s13.4°C65.2%735.2hPa0V00:00:0000:00:0000:00:00
PU1XMG-162026-08-31 23:40:09-22.82981-43.24581134°46km/h2700m7.0m/s13.7°C65.0%738.7hPa0V00:00:0000:00:0000:00:00
PU1XMG-162026-08-31 23:40:03-22.82932-43.24645130°51km/h2662m6.8m/s13.8°C71.0%742.2hPa0V00:00:0000:00:0000:00:00
PU1XMG-162026-08-31 23:39:59-22.82888-43.24694142°51km/h2625m7.4m/s13.9°C72.7%745.1hPa0V00:00:0000:00:0000:00:00
PU1XMG-162026-08-31 23:39:53-22.82827-43.24749140°55km/h2583m6.3m/s14.1°C77.7%748.8hPa0V00:00:0000:00:0000:00:00
PU1XMG-162026-08-31 23:39:47-22.82770-43.24804136°47km/h2543m7.2m/s14.3°C79.1%752.5hPa0V00:00:0000:00:0000:00:00
PU1XMG-162026-08-31 23:39:41-22.82725-43.24849142°46km/h2507m7.6m/s14.5°C78.6%755.5hPa0V00:00:0000:00:0000:00:00
PU1XMG-162026-08-31 23:39:35-22.82665-43.24899140°53km/h2463m7.0m/s14.9°C78.0%759.4hPa0V00:00:0000:00:0000:00:00
PU1XMG-162026-08-31 23:39:29-22.82614-43.24958128°47km/h2423m5.9m/s15.1°C77.8%763.0hPa0V00:00:0000:00:0000:00:00
PU1XMG-162026-08-31 23:39:23-22.82561-43.25016140°64km/h2386m7.9m/s15.5°C75.9%766.3hPa0V00:00:0000:00:0000:00:00
PU1XMG-162026-08-31 23:39:17-22.82500-43.25075138°47km/h2348m9.2m/s15.8°C74.0%769.8hPa0V00:00:0000:00:0000:00:00
PU1XMG-162026-08-31 23:39:07-22.82412-43.25169141°38km/h2273m6.5m/s16.4°C68.8%776.5hPa0V00:00:0000:00:0000:00:00
PU1XMG-162026-08-31 23:39:01-22.82364-43.25198150°51km/h2242m5.3m/s16.7°C67.9%779.4hPa0V00:00:0000:00:0000:00:00
PU1XMG-162026-08-31 23:38:56-22.82316-43.25233142°46km/h2206m9.0m/s17.1°C66.9%782.7hPa0V00:00:0000:00:0000:00:00
PU1XMG-162026-08-31 23:38:50-22.82271-43.25280134°40km/h2166m4.8m/s17.4°C65.7%786.6hPa0V00:00:0000:00:0000:00:00
PU1XMG-162026-08-31 23:38:45-22.82230-43.25325137°38km/h2125m7.2m/s17.8°C63.7%790.1hPa0V00:00:0000:00:0000:00:00
PU1XMG-162026-08-31 23:38:39-22.82188-43.25361143°42km/h2095m5.9m/s18.1°C62.6%793.0hPa0V00:00:0000:00:0000:00:00
PU1XMG-162026-08-31 23:38:35-22.82140-43.25397142°42km/h2060m5.2m/s18.4°C61.8%796.1hPa0V00:00:0000:00:0000:00:00
PU1XMG-162026-08-31 23:38:29-22.82090-43.25441142°44km/h2017m5.9m/s18.4°C63.1%800.0hPa0V00:00:0000:00:0000:00:00
PU1XMG-162026-08-31 23:38:22-22.82044-43.25480140°35km/h1979m6.4m/s18.3°C64.9%803.6hPa0V00:00:0000:00:0000:00:00
PU1XMG-162026-08-31 23:38:17-22.82010-43.25511145°38km/h1947m8.2m/s18.3°C64.9%806.7hPa0V00:00:0000:00:0000:00:00
PU1XMG-162026-08-31 23:38:13-22.81963-43.25543157°46km/h1915m7.3m/s17.7°C70.3%809.9hPa0V00:00:0000:00:0000:00:00
PU1XMG-162026-08-31 23:38:07-22.81911-43.25566161°47km/h1883m7.3m/s17.6°C72.4%812.9hPa0V00:00:0000:00:0000:00:00
PU1XMG-162026-08-31 23:38:03-22.81861-43.25587157°42km/h1853m6.9m/s17.8°C72.2%815.7hPa0V00:00:0000:00:0000:00:00
PU1XMG-162026-08-31 23:37:57-22.81808-43.25610162°37km/h1814m7.9m/s17.4°C77.6%819.2hPa0V00:00:0000:00:0000:00:00
PU1XMG-162026-08-31 23:37:51-22.81767-43.25625169°29km/h1780m6.9m/s17.4°C80.4%822.5hPa0V00:00:0000:00:0000:00:00
PU1XMG-162026-08-31 23:37:46-22.81734-43.25634177°15km/h1742m5.8m/s17.3°C83.4%826.2hPa0V00:00:0000:00:0000:00:00
PU1XMG-162026-08-31 23:37:40-22.81712-43.25639163°22km/h1710m7.5m/s17.3°C84.7%829.3hPa0V00:00:0000:00:0000:00:00
PU1XMG-162026-08-31 23:37:34-22.81680-43.25653161°24km/h1670m6.8m/s17.6°C84.4%833.2hPa0V00:00:0000:00:0000:00:00
PU1XMG-162026-08-31 23:37:22-22.81614-43.25652177°27km/h1587m7.4m/s18.3°C81.4%841.5hPa0V00:00:0000:00:0000:00:00
PU1XMG-162026-08-31 23:37:18-22.81577-43.25653183°33km/h1547m9.8m/s18.5°C81.8%845.2hPa0V00:00:0000:00:0000:00:00
PU1XMG-162026-08-31 23:37:12-22.81538-43.25653180°31km/h1511m7.7m/s18.9°C80.6%848.9hPa0V00:00:0000:00:0000:00:00
PU1XMG-162026-08-31 23:37:06-22.81488-43.25661167°37km/h1469m8.2m/s19.1°C80.1%852.9hPa0V00:00:0000:00:0000:00:00
PU1XMG-162026-08-31 23:37:01-22.81444-43.25664187°35km/h1434m7.4m/s18.8°C84.1%856.2hPa0V00:00:0000:00:0000:00:00
PU1XMG-162026-08-31 23:36:56-22.81398-43.25657196°38km/h1401m7.6m/s19.1°C82.6%859.6hPa0V00:00:0000:00:0000:00:00
PU1XMG-162026-08-31 23:36:52-22.81353-43.25648190°38km/h1363m6.7m/s19.5°C81.1%863.4hPa0V00:00:0000:00:0000:00:00
PU1XMG-162026-08-31 23:36:46-22.81303-43.25642186°37km/h1330m6.9m/s19.8°C79.9%866.8hPa0V00:00:0000:00:0000:00:00
PU1XMG-162026-08-31 23:36:42-22.81262-43.25635184°33km/h1294m6.8m/s20.0°C79.0%870.4hPa0V00:00:0000:00:0000:00:00
PU1XMG-162026-08-31 23:36:35-22.81218-43.25632186°27km/h1256m7.4m/s20.2°C78.1%874.2hPa0V00:00:0000:00:0000:00:00
PU1XMG-162026-08-31 23:36:30-22.81184-43.25621207°27km/h1225m6.6m/s20.5°C76.9%877.3hPa0V00:00:0000:00:0000:00:00
PU1XMG-162026-08-31 23:36:24-22.81154-43.25609186°18km/h1190m6.9m/s20.8°C75.7%880.9hPa0V00:00:0000:00:0000:00:00
PU1XMG-162026-08-31 23:36:18-22.81127-43.25601198°20km/h1150m6.0m/s21.1°C74.5%885.0hPa0V00:00:0000:00:0000:00:00
PU1XMG-162026-08-31 23:36:13-22.81100-43.25592200°26km/h1112m8.3m/s21.6°C72.8%888.9hPa0V00:00:0000:00:0000:00:00
PU1XMG-162026-08-31 23:36:08-22.81075-43.25582195°15km/h1074m7.5m/s21.9°C71.6%892.7hPa0V00:00:0000:00:0000:00:00
PU1XMG-162026-08-31 23:36:02-22.81047-43.25572205°20km/h1032m7.3m/s22.3°C70.0%897.0hPa0V00:00:0000:00:0000:00:00
PU1XMG-162026-08-31 23:35:57-22.81030-43.25566207°13km/h994m6.8m/s22.7°C68.8%900.9hPa0V00:00:0000:00:0000:00:00
PU1XMG-162026-08-31 23:35:46-22.80989-43.25542202°24km/h917m7.9m/s23.2°C66.7%908.7hPa0V00:00:0000:00:0000:00:00
PU1XMG-162026-08-31 23:35:40-22.80963-43.25529220°13km/h880m3.7m/s23.6°C65.7%912.8hPa0V00:00:0000:00:0000:00:00
PU1XMG-162026-08-31 23:35:36-22.80951-43.25513230°18km/h848m6.1m/s23.8°C64.8%916.1hPa0V00:00:0000:00:0000:00:00
PU1XMG-162026-08-31 23:35:30-22.80932-43.25494235°16km/h819m8.5m/s0°C0%919.4hPa0V00:00:0000:00:0000:00:00
PU1XMG-162026-08-31 23:35:26-22.80923-43.25477232°13km/h783m6.3m/s0°C0%922.9hPa0V00:00:0000:00:0000:00:00
PU1XMG-162026-08-31 23:35:19-22.80913-43.25460248°15km/h746m7.7m/s0°C0%926.9hPa0V00:00:0000:00:0000:00:00
PU1XMG-162026-08-31 23:35:14-22.80908-43.25438270°18km/h715m5.2m/s0°C0%0hPa0V00:00:0000:00:0000:00:00
PU1XMG-162026-08-31 23:35:08-22.80910-43.25408261°22km/h678m5.8m/s0°C0%0hPa0V00:00:0000:00:0000:00:00
PU1XMG-162026-08-31 23:35:03-22.80904-43.25381258°18km/h651m6.9m/s0°C0%0hPa0V00:00:0000:00:0000:00:00
PU1XMG-162026-08-31 23:34:58-22.80899-43.25357255°18km/h621m4.2m/s0°C0%0hPa0V00:00:0000:00:0000:00:00
PU1XMG-162026-08-31 23:34:52-22.80898-43.25325279°24km/h585m6.5m/s0°C0%0hPa0V00:00:0000:00:0000:00:00
PU1XMG-162026-08-31 23:34:46-22.80892-43.25277260°29km/h551m3.5m/s0°C0%0hPa0V00:00:0000:00:0000:00:00
PU1XMG-162026-08-31 23:34:40-22.80887-43.25232264°22km/h521m4.3m/s0°C0%0hPa0V00:00:0000:00:0000:00:00
PU1XMG-162026-08-31 23:34:32-22.80888-43.25186259°18km/h477m3.9m/s0°C0%0hPa0V00:00:0000:00:0000:00:00
PU1XMG-162026-08-31 23:34:25-22.80887-43.25164289°9km/h441m7.3m/s0°C0%0hPa0V00:00:0000:00:0000:00:00
PU1XMG-162026-08-31 23:34:17-22.80892-43.25142279°13km/h397m6.1m/s0°C0%0hPa0V00:00:0000:00:0000:00:00
PU1XMG-162026-08-31 23:34:07-22.80896-43.25112284°15km/h342m5.0m/s0°C0%0hPa0V00:00:0000:00:0000:00:00
PU1XMG-162026-08-31 23:34:00-22.80899-43.25089272°13km/h307m6.1m/s0°C0%0hPa0V00:00:0000:00:0000:00:00
PU1XMG-162026-08-31 23:33:53-22.80903-43.25065286°15km/h271m4.7m/s0°C0%0hPa0V00:00:0000:00:0000:00:00
PU1XMG-162026-08-31 23:33:48-22.80906-43.25045274°16km/h247m6.1m/s0°C0%0hPa0V00:00:0000:00:0000:00:00


GPX KML Map

© wettersonde.net (DO2JMG) - 2026  -  -